<?xml version="1.0" encoding="UTF-8" standalone="no" ?>
<gpx xmlns="http://www.topografix.com/GPX/1/1" xmlns:xsi="http://www.w3.org/2001/XMLSchema-instance" xsi:schemaLocation="http://www.topografix.com/GPX/1/1 http://www.topografix.com/GPX/1/1/gpx.xsd" version="1.1" creator="VisuGPX - https://www.visugpx.com">
  <metadata>
    <name>Abbaye de Sylvanes et église russe</name>
    <desc><![CDATA[File with points/tracks from Locus Map/4.15.2]]></desc>
  </metadata>
  <trk>
    <name><![CDATA[2023-04-04 11:15]]></name>
    <extensions>
      <line xmlns="http://www.topografix.com/GPX/gpx_style/0/2">
        <color>0000FF</color>
        <opacity>0.59</opacity>
        <width>6.0</width>
      </line>
    </extensions>
    <trkseg>
      <trkpt lat="43.83391" lon="2.95921">
        <ele>457.42</ele>
        <time>2023-04-04T09:15:44.854Z</time>
      </trkpt>
      <trkpt lat="43.83392" lon="2.9592">
        <ele>457.36</ele>
        <time>2023-04-04T09:16:00.844Z</time>
      </trkpt>
      <trkpt lat="43.83391" lon="2.95916">
        <ele>455.43</ele>
        <time>2023-04-04T09:16:11.414Z</time>
      </trkpt>
      <trkpt lat="43.83391" lon="2.95917">
        <ele>455.42</ele>
        <time>2023-04-04T09:16:24.605Z</time>
      </trkpt>
      <trkpt lat="43.83397" lon="2.95919">
        <ele>455.67</ele>
        <time>2023-04-04T09:16:34.625Z</time>
      </trkpt>
      <trkpt lat="43.83398" lon="2.9592">
        <ele>454.42</ele>
        <time>2023-04-04T09:16:45.695Z</time>
      </trkpt>
      <trkpt lat="43.83397" lon="2.9592">
        <ele>453.42</ele>
        <time>2023-04-04T09:16:56.715Z</time>
      </trkpt>
      <trkpt lat="43.83397" lon="2.95919">
        <ele>453.48</ele>
        <time>2023-04-04T09:17:17.713Z</time>
      </trkpt>
      <trkpt lat="43.83396" lon="2.9592">
        <ele>457.35</ele>
        <time>2023-04-04T09:17:40.696Z</time>
      </trkpt>
      <trkpt lat="43.83393" lon="2.95922">
        <ele>458.42</ele>
        <time>2023-04-04T09:17:51.204Z</time>
      </trkpt>
      <trkpt lat="43.83391" lon="2.95922">
        <ele>459.42</ele>
        <time>2023-04-04T09:18:05.435Z</time>
      </trkpt>
      <trkpt lat="43.83389" lon="2.95926">
        <ele>459.42</ele>
        <time>2023-04-04T09:18:16.405Z</time>
      </trkpt>
      <trkpt lat="43.83391" lon="2.95926">
        <ele>459.42</ele>
        <time>2023-04-04T09:18:27.345Z</time>
      </trkpt>
      <trkpt lat="43.83399" lon="2.95931">
        <ele>460.42</ele>
        <time>2023-04-04T09:18:37.686Z</time>
      </trkpt>
      <trkpt lat="43.83405" lon="2.9594">
        <ele>463.42</ele>
        <time>2023-04-04T09:18:48.194Z</time>
      </trkpt>
      <trkpt lat="43.83412" lon="2.95955">
        <ele>465.42</ele>
        <time>2023-04-04T09:18:58.725Z</time>
      </trkpt>
      <trkpt lat="43.83417" lon="2.95972">
        <ele>465.42</ele>
        <time>2023-04-04T09:19:09.124Z</time>
      </trkpt>
      <trkpt lat="43.83426" lon="2.95988">
        <ele>465.42</ele>
        <time>2023-04-04T09:19:19.634Z</time>
      </trkpt>
      <trkpt lat="43.8343" lon="2.96003">
        <ele>467.42</ele>
        <time>2023-04-04T09:19:30.025Z</time>
      </trkpt>
      <trkpt lat="43.83437" lon="2.9602">
        <ele>468.42</ele>
        <time>2023-04-04T09:19:40.535Z</time>
      </trkpt>
      <trkpt lat="43.8344" lon="2.96039">
        <ele>466.42</ele>
        <time>2023-04-04T09:19:51.054Z</time>
      </trkpt>
      <trkpt lat="43.83445" lon="2.96053">
        <ele>466.42</ele>
        <time>2023-04-04T09:20:01.484Z</time>
      </trkpt>
      <trkpt lat="43.8345" lon="2.96068">
        <ele>465.42</ele>
        <time>2023-04-04T09:20:11.564Z</time>
      </trkpt>
      <trkpt lat="43.83455" lon="2.96084">
        <ele>466.42</ele>
        <time>2023-04-04T09:20:22.015Z</time>
      </trkpt>
      <trkpt lat="43.83461" lon="2.961">
        <ele>467.23</ele>
        <time>2023-04-04T09:20:32.415Z</time>
      </trkpt>
      <trkpt lat="43.83467" lon="2.9611">
        <ele>468.42</ele>
        <time>2023-04-04T09:20:42.884Z</time>
      </trkpt>
      <trkpt lat="43.83472" lon="2.96124">
        <ele>469.42</ele>
        <time>2023-04-04T09:20:53.344Z</time>
      </trkpt>
      <trkpt lat="43.83478" lon="2.96141">
        <ele>470.42</ele>
        <time>2023-04-04T09:21:03.845Z</time>
      </trkpt>
      <trkpt lat="43.83482" lon="2.96158">
        <ele>470.42</ele>
        <time>2023-04-04T09:21:14.365Z</time>
      </trkpt>
      <trkpt lat="43.83486" lon="2.96175">
        <ele>470.43</ele>
        <time>2023-04-04T09:21:24.804Z</time>
      </trkpt>
      <trkpt lat="43.8349" lon="2.96191">
        <ele>470.42</ele>
        <time>2023-04-04T09:21:35.074Z</time>
      </trkpt>
      <trkpt lat="43.83493" lon="2.96209">
        <ele>470.23</ele>
        <time>2023-04-04T09:21:45.484Z</time>
      </trkpt>
      <trkpt lat="43.83493" lon="2.96223">
        <ele>470.35</ele>
        <time>2023-04-04T09:21:55.924Z</time>
      </trkpt>
      <trkpt lat="43.83494" lon="2.96228">
        <ele>471.42</ele>
        <time>2023-04-04T09:22:06.474Z</time>
      </trkpt>
      <trkpt lat="43.83493" lon="2.9623">
        <ele>471.42</ele>
        <time>2023-04-04T09:22:28.710Z</time>
      </trkpt>
      <trkpt lat="43.83494" lon="2.96234">
        <ele>469.42</ele>
        <time>2023-04-04T09:22:39.344Z</time>
      </trkpt>
      <trkpt lat="43.83497" lon="2.96245">
        <ele>469.67</ele>
        <time>2023-04-04T09:22:49.814Z</time>
      </trkpt>
      <trkpt lat="43.83496" lon="2.96261">
        <ele>468.42</ele>
        <time>2023-04-04T09:23:00.224Z</time>
      </trkpt>
      <trkpt lat="43.83494" lon="2.96276">
        <ele>468.48</ele>
        <time>2023-04-04T09:23:10.655Z</time>
      </trkpt>
      <trkpt lat="43.8349" lon="2.96291">
        <ele>468.65</ele>
        <time>2023-04-04T09:23:21.054Z</time>
      </trkpt>
      <trkpt lat="43.83485" lon="2.96308">
        <ele>468.42</ele>
        <time>2023-04-04T09:23:31.494Z</time>
      </trkpt>
      <trkpt lat="43.83483" lon="2.96323">
        <ele>466.67</ele>
        <time>2023-04-04T09:23:41.505Z</time>
      </trkpt>
      <trkpt lat="43.8348" lon="2.96338">
        <ele>467.41</ele>
        <time>2023-04-04T09:23:51.924Z</time>
      </trkpt>
      <trkpt lat="43.8348" lon="2.96354">
        <ele>469.35</ele>
        <time>2023-04-04T09:24:02.405Z</time>
      </trkpt>
      <trkpt lat="43.83477" lon="2.9636">
        <ele>468.42</ele>
        <time>2023-04-04T09:24:12.704Z</time>
      </trkpt>
      <trkpt lat="43.83477" lon="2.96359">
        <ele>468.41</ele>
        <time>2023-04-04T09:24:24.315Z</time>
      </trkpt>
      <trkpt lat="43.83477" lon="2.96363">
        <ele>470.18</ele>
        <time>2023-04-04T09:24:35.364Z</time>
      </trkpt>
      <trkpt lat="43.83476" lon="2.96371">
        <ele>469.48</ele>
        <time>2023-04-04T09:24:45.685Z</time>
      </trkpt>
      <trkpt lat="43.83475" lon="2.96375">
        <ele>469.41</ele>
        <time>2023-04-04T09:24:55.706Z</time>
      </trkpt>
      <trkpt lat="43.8347" lon="2.96382">
        <ele>469.41</ele>
        <time>2023-04-04T09:25:05.944Z</time>
      </trkpt>
      <trkpt lat="43.83465" lon="2.96393">
        <ele>467.43</ele>
        <time>2023-04-04T09:25:16.564Z</time>
      </trkpt>
      <trkpt lat="43.83465" lon="2.96407">
        <ele>468.4</ele>
        <time>2023-04-04T09:25:27.054Z</time>
      </trkpt>
      <trkpt lat="43.83465" lon="2.96422">
        <ele>472.41</ele>
        <time>2023-04-04T09:25:37.443Z</time>
      </trkpt>
      <trkpt lat="43.83469" lon="2.96437">
        <ele>473.41</ele>
        <time>2023-04-04T09:25:47.704Z</time>
      </trkpt>
      <trkpt lat="43.83476" lon="2.9645">
        <ele>473.48</ele>
        <time>2023-04-04T09:25:58.174Z</time>
      </trkpt>
      <trkpt lat="43.83481" lon="2.96467">
        <ele>473.41</ele>
        <time>2023-04-04T09:26:08.635Z</time>
      </trkpt>
      <trkpt lat="43.83488" lon="2.96483">
        <ele>471.43</ele>
        <time>2023-04-04T09:26:19.125Z</time>
      </trkpt>
      <trkpt lat="43.83495" lon="2.96496">
        <ele>472.41</ele>
        <time>2023-04-04T09:26:29.464Z</time>
      </trkpt>
      <trkpt lat="43.83504" lon="2.9651">
        <ele>472.41</ele>
        <time>2023-04-04T09:26:39.915Z</time>
      </trkpt>
      <trkpt lat="43.83515" lon="2.96526">
        <ele>472.42</ele>
        <time>2023-04-04T09:26:50.375Z</time>
      </trkpt>
      <trkpt lat="43.83527" lon="2.96539">
        <ele>472.41</ele>
        <time>2023-04-04T09:27:00.815Z</time>
      </trkpt>
      <trkpt lat="43.83536" lon="2.96554">
        <ele>472.41</ele>
        <time>2023-04-04T09:27:11.284Z</time>
      </trkpt>
      <trkpt lat="43.83546" lon="2.96567">
        <ele>472.41</ele>
        <time>2023-04-04T09:27:21.604Z</time>
      </trkpt>
      <trkpt lat="43.83554" lon="2.96581">
        <ele>472.41</ele>
        <time>2023-04-04T09:27:32.004Z</time>
      </trkpt>
      <trkpt lat="43.83564" lon="2.96596">
        <ele>470.42</ele>
        <time>2023-04-04T09:27:42.475Z</time>
      </trkpt>
      <trkpt lat="43.83573" lon="2.9661">
        <ele>470.41</ele>
        <time>2023-04-04T09:27:52.834Z</time>
      </trkpt>
      <trkpt lat="43.83585" lon="2.96621">
        <ele>472.41</ele>
        <time>2023-04-04T09:28:03.334Z</time>
      </trkpt>
      <trkpt lat="43.83595" lon="2.96634">
        <ele>471.41</ele>
        <time>2023-04-04T09:28:13.685Z</time>
      </trkpt>
      <trkpt lat="43.83602" lon="2.96646">
        <ele>473.41</ele>
        <time>2023-04-04T09:28:24.115Z</time>
      </trkpt>
      <trkpt lat="43.83605" lon="2.96649">
        <ele>474.39</ele>
        <time>2023-04-04T09:28:34.544Z</time>
      </trkpt>
      <trkpt lat="43.83615" lon="2.96665">
        <ele>473.43</ele>
        <time>2023-04-04T09:28:44.944Z</time>
      </trkpt>
      <trkpt lat="43.83627" lon="2.9668">
        <ele>473.41</ele>
        <time>2023-04-04T09:28:55.383Z</time>
      </trkpt>
      <trkpt lat="43.83636" lon="2.96694">
        <ele>474.35</ele>
        <time>2023-04-04T09:29:05.711Z</time>
      </trkpt>
      <trkpt lat="43.83645" lon="2.96708">
        <ele>476.41</ele>
        <time>2023-04-04T09:29:16.194Z</time>
      </trkpt>
      <trkpt lat="43.83654" lon="2.96722">
        <ele>477.41</ele>
        <time>2023-04-04T09:29:26.585Z</time>
      </trkpt>
      <trkpt lat="43.83663" lon="2.96738">
        <ele>476.41</ele>
        <time>2023-04-04T09:29:37.035Z</time>
      </trkpt>
      <trkpt lat="43.83669" lon="2.96754">
        <ele>476.41</ele>
        <time>2023-04-04T09:29:47.385Z</time>
      </trkpt>
      <trkpt lat="43.83676" lon="2.96769">
        <ele>476.41</ele>
        <time>2023-04-04T09:29:57.701Z</time>
      </trkpt>
      <trkpt lat="43.83682" lon="2.96785">
        <ele>475.41</ele>
        <time>2023-04-04T09:30:08.274Z</time>
      </trkpt>
      <trkpt lat="43.83684" lon="2.96795">
        <ele>473.41</ele>
        <time>2023-04-04T09:30:18.709Z</time>
      </trkpt>
      <trkpt lat="43.8368" lon="2.96803">
        <ele>472.41</ele>
        <time>2023-04-04T09:30:29.284Z</time>
      </trkpt>
      <trkpt lat="43.83679" lon="2.96801">
        <ele>472.41</ele>
        <time>2023-04-04T09:30:39.745Z</time>
      </trkpt>
      <trkpt lat="43.83678" lon="2.96801">
        <ele>471.41</ele>
        <time>2023-04-04T09:30:51.134Z</time>
      </trkpt>
      <trkpt lat="43.83672" lon="2.9679">
        <ele>473.16</ele>
        <time>2023-04-04T09:31:01.444Z</time>
      </trkpt>
      <trkpt lat="43.83666" lon="2.96778">
        <ele>476.39</ele>
        <time>2023-04-04T09:31:11.795Z</time>
      </trkpt>
      <trkpt lat="43.83657" lon="2.96778">
        <ele>477.35</ele>
        <time>2023-04-04T09:31:22.195Z</time>
      </trkpt>
      <trkpt lat="43.8365" lon="2.96792">
        <ele>479.33</ele>
        <time>2023-04-04T09:31:32.624Z</time>
      </trkpt>
      <trkpt lat="43.8365" lon="2.96802">
        <ele>483.4</ele>
        <time>2023-04-04T09:31:43.025Z</time>
      </trkpt>
      <trkpt lat="43.83651" lon="2.96818">
        <ele>486.35</ele>
        <time>2023-04-04T09:31:53.545Z</time>
      </trkpt>
      <trkpt lat="43.83648" lon="2.96833">
        <ele>491.35</ele>
        <time>2023-04-04T09:32:04.015Z</time>
      </trkpt>
      <trkpt lat="43.83644" lon="2.96845">
        <ele>494.39</ele>
        <time>2023-04-04T09:32:14.415Z</time>
      </trkpt>
      <trkpt lat="43.83641" lon="2.96855">
        <ele>495.39</ele>
        <time>2023-04-04T09:32:24.835Z</time>
      </trkpt>
      <trkpt lat="43.83637" lon="2.96869">
        <ele>496.41</ele>
        <time>2023-04-04T09:32:35.324Z</time>
      </trkpt>
      <trkpt lat="43.83635" lon="2.96884">
        <ele>500.39</ele>
        <time>2023-04-04T09:32:46.315Z</time>
      </trkpt>
      <trkpt lat="43.83635" lon="2.96894">
        <ele>504.41</ele>
        <time>2023-04-04T09:32:56.686Z</time>
      </trkpt>
      <trkpt lat="43.83632" lon="2.96905">
        <ele>505.41</ele>
        <time>2023-04-04T09:33:07.065Z</time>
      </trkpt>
      <trkpt lat="43.83627" lon="2.96917">
        <ele>504.41</ele>
        <time>2023-04-04T09:33:17.083Z</time>
      </trkpt>
      <trkpt lat="43.83624" lon="2.96934">
        <ele>502.42</ele>
        <time>2023-04-04T09:33:27.574Z</time>
      </trkpt>
      <trkpt lat="43.83621" lon="2.96947">
        <ele>501.42</ele>
        <time>2023-04-04T09:33:38.065Z</time>
      </trkpt>
      <trkpt lat="43.83619" lon="2.9696">
        <ele>501.41</ele>
        <time>2023-04-04T09:33:48.385Z</time>
      </trkpt>
      <trkpt lat="43.83614" lon="2.96975">
        <ele>503.41</ele>
        <time>2023-04-04T09:33:58.904Z</time>
      </trkpt>
      <trkpt lat="43.83612" lon="2.96995">
        <ele>505.41</ele>
        <time>2023-04-04T09:34:09.379Z</time>
      </trkpt>
      <trkpt lat="43.83607" lon="2.97007">
        <ele>507.41</ele>
        <time>2023-04-04T09:34:19.604Z</time>
      </trkpt>
      <trkpt lat="43.83599" lon="2.97021">
        <ele>508.42</ele>
        <time>2023-04-04T09:34:30.045Z</time>
      </trkpt>
      <trkpt lat="43.83593" lon="2.97034">
        <ele>511.41</ele>
        <time>2023-04-04T09:34:40.384Z</time>
      </trkpt>
      <trkpt lat="43.83589" lon="2.97049">
        <ele>512.39</ele>
        <time>2023-04-04T09:34:50.794Z</time>
      </trkpt>
      <trkpt lat="43.83586" lon="2.97062">
        <ele>514.41</ele>
        <time>2023-04-04T09:35:01.744Z</time>
      </trkpt>
      <trkpt lat="43.83578" lon="2.97077">
        <ele>514.41</ele>
        <time>2023-04-04T09:35:12.195Z</time>
      </trkpt>
      <trkpt lat="43.83578" lon="2.97086">
        <ele>516.41</ele>
        <time>2023-04-04T09:35:22.515Z</time>
      </trkpt>
      <trkpt lat="43.83574" lon="2.97099">
        <ele>518.4</ele>
        <time>2023-04-04T09:35:32.944Z</time>
      </trkpt>
      <trkpt lat="43.83569" lon="2.97114">
        <ele>520.41</ele>
        <time>2023-04-04T09:35:43.345Z</time>
      </trkpt>
      <trkpt lat="43.83563" lon="2.97124">
        <ele>519.41</ele>
        <time>2023-04-04T09:35:53.355Z</time>
      </trkpt>
      <trkpt lat="43.83557" lon="2.97136">
        <ele>518.4</ele>
        <time>2023-04-04T09:36:03.364Z</time>
      </trkpt>
      <trkpt lat="43.83554" lon="2.97149">
        <ele>521.16</ele>
        <time>2023-04-04T09:36:13.625Z</time>
      </trkpt>
      <trkpt lat="43.83549" lon="2.97162">
        <ele>521.39</ele>
        <time>2023-04-04T09:36:24.565Z</time>
      </trkpt>
      <trkpt lat="43.83547" lon="2.97175">
        <ele>519.41</ele>
        <time>2023-04-04T09:36:35.065Z</time>
      </trkpt>
      <trkpt lat="43.83545" lon="2.97185">
        <ele>520.41</ele>
        <time>2023-04-04T09:36:45.554Z</time>
      </trkpt>
      <trkpt lat="43.83539" lon="2.972">
        <ele>520.41</ele>
        <time>2023-04-04T09:36:56.594Z</time>
      </trkpt>
      <trkpt lat="43.83531" lon="2.97216">
        <ele>521.41</ele>
        <time>2023-04-04T09:37:07.055Z</time>
      </trkpt>
      <trkpt lat="43.83528" lon="2.97229">
        <ele>522.41</ele>
        <time>2023-04-04T09:37:17.584Z</time>
      </trkpt>
      <trkpt lat="43.83522" lon="2.9724">
        <ele>519.47</ele>
        <time>2023-04-04T09:37:28.525Z</time>
      </trkpt>
      <trkpt lat="43.83513" lon="2.9725">
        <ele>523.34</ele>
        <time>2023-04-04T09:37:39.483Z</time>
      </trkpt>
      <trkpt lat="43.83505" lon="2.97255">
        <ele>524.41</ele>
        <time>2023-04-04T09:37:49.944Z</time>
      </trkpt>
      <trkpt lat="43.83495" lon="2.97262">
        <ele>527.35</ele>
        <time>2023-04-04T09:38:00.345Z</time>
      </trkpt>
      <trkpt lat="43.83486" lon="2.97266">
        <ele>527.41</ele>
        <time>2023-04-04T09:38:10.696Z</time>
      </trkpt>
      <trkpt lat="43.8348" lon="2.97269">
        <ele>528.41</ele>
        <time>2023-04-04T09:38:21.725Z</time>
      </trkpt>
      <trkpt lat="43.83474" lon="2.97273">
        <ele>530.39</ele>
        <time>2023-04-04T09:38:32.702Z</time>
      </trkpt>
      <trkpt lat="43.83474" lon="2.97274">
        <ele>532.41</ele>
        <time>2023-04-04T09:38:42.714Z</time>
      </trkpt>
      <trkpt lat="43.83473" lon="2.97275">
        <ele>530.91</ele>
        <time>2023-04-04T09:41:24.711Z</time>
      </trkpt>
      <trkpt lat="43.83472" lon="2.97277">
        <ele>531.41</ele>
        <time>2023-04-04T09:41:35.701Z</time>
      </trkpt>
      <trkpt lat="43.83471" lon="2.97275">
        <ele>530.66</ele>
        <time>2023-04-04T09:42:00.686Z</time>
      </trkpt>
      <trkpt lat="43.8347" lon="2.97274">
        <ele>533.41</ele>
        <time>2023-04-04T09:42:10.704Z</time>
      </trkpt>
      <trkpt lat="43.83468" lon="2.97275">
        <ele>533.91</ele>
        <time>2023-04-04T09:43:10.706Z</time>
      </trkpt>
      <trkpt lat="43.83467" lon="2.97276">
        <ele>535.66</ele>
        <time>2023-04-04T09:43:28.704Z</time>
      </trkpt>
      <trkpt lat="43.83467" lon="2.97276">
        <ele>534.41</ele>
        <time>2023-04-04T09:43:38.708Z</time>
      </trkpt>
      <trkpt lat="43.83463" lon="2.97285">
        <ele>534.41</ele>
        <time>2023-04-04T09:43:49.701Z</time>
      </trkpt>
      <trkpt lat="43.83456" lon="2.97296">
        <ele>538.34</ele>
        <time>2023-04-04T09:44:00.710Z</time>
      </trkpt>
      <trkpt lat="43.8345" lon="2.97307">
        <ele>543.16</ele>
        <time>2023-04-04T09:44:11.694Z</time>
      </trkpt>
      <trkpt lat="43.83439" lon="2.97319">
        <ele>543.16</ele>
        <time>2023-04-04T09:44:21.975Z</time>
      </trkpt>
      <trkpt lat="43.83431" lon="2.97334">
        <ele>542.41</ele>
        <time>2023-04-04T09:44:32.435Z</time>
      </trkpt>
      <trkpt lat="43.83425" lon="2.97346">
        <ele>542.6</ele>
        <time>2023-04-04T09:44:42.495Z</time>
      </trkpt>
      <trkpt lat="43.83417" lon="2.97359">
        <ele>544.16</ele>
        <time>2023-04-04T09:44:52.706Z</time>
      </trkpt>
      <trkpt lat="43.83407" lon="2.97374">
        <ele>544.41</ele>
        <time>2023-04-04T09:45:03.204Z</time>
      </trkpt>
      <trkpt lat="43.83401" lon="2.97387">
        <ele>543.47</ele>
        <time>2023-04-04T09:45:13.565Z</time>
      </trkpt>
      <trkpt lat="43.83394" lon="2.97402">
        <ele>546.41</ele>
        <time>2023-04-04T09:45:24.075Z</time>
      </trkpt>
      <trkpt lat="43.83385" lon="2.97413">
        <ele>548.41</ele>
        <time>2023-04-04T09:45:34.545Z</time>
      </trkpt>
      <trkpt lat="43.83376" lon="2.97422">
        <ele>550.41</ele>
        <time>2023-04-04T09:45:45.024Z</time>
      </trkpt>
      <trkpt lat="43.83368" lon="2.97429">
        <ele>551.22</ele>
        <time>2023-04-04T09:45:55.466Z</time>
      </trkpt>
      <trkpt lat="43.83358" lon="2.97437">
        <ele>551.41</ele>
        <time>2023-04-04T09:46:05.875Z</time>
      </trkpt>
      <trkpt lat="43.83348" lon="2.97442">
        <ele>553.39</ele>
        <time>2023-04-04T09:46:16.416Z</time>
      </trkpt>
      <trkpt lat="43.83341" lon="2.97446">
        <ele>557.41</ele>
        <time>2023-04-04T09:46:26.935Z</time>
      </trkpt>
      <trkpt lat="43.83331" lon="2.97453">
        <ele>557.41</ele>
        <time>2023-04-04T09:46:37.417Z</time>
      </trkpt>
      <trkpt lat="43.83321" lon="2.97459">
        <ele>556.41</ele>
        <time>2023-04-04T09:46:47.795Z</time>
      </trkpt>
      <trkpt lat="43.83311" lon="2.97464">
        <ele>557.41</ele>
        <time>2023-04-04T09:46:58.296Z</time>
      </trkpt>
      <trkpt lat="43.83296" lon="2.97464">
        <ele>560.41</ele>
        <time>2023-04-04T09:47:08.713Z</time>
      </trkpt>
      <trkpt lat="43.83278" lon="2.97461">
        <ele>562.41</ele>
        <time>2023-04-04T09:47:19.105Z</time>
      </trkpt>
      <trkpt lat="43.83268" lon="2.97458">
        <ele>563.41</ele>
        <time>2023-04-04T09:47:29.605Z</time>
      </trkpt>
      <trkpt lat="43.83259" lon="2.97456">
        <ele>567.41</ele>
        <time>2023-04-04T09:47:40.035Z</time>
      </trkpt>
      <trkpt lat="43.83251" lon="2.97454">
        <ele>572.38</ele>
        <time>2023-04-04T09:47:50.456Z</time>
      </trkpt>
      <trkpt lat="43.83241" lon="2.97456">
        <ele>572.41</ele>
        <time>2023-04-04T09:48:00.845Z</time>
      </trkpt>
      <trkpt lat="43.83239" lon="2.97455">
        <ele>572.41</ele>
        <time>2023-04-04T09:48:11.305Z</time>
      </trkpt>
      <trkpt lat="43.83236" lon="2.97468">
        <ele>569.42</ele>
        <time>2023-04-04T09:48:21.705Z</time>
      </trkpt>
      <trkpt lat="43.83234" lon="2.97484">
        <ele>566.43</ele>
        <time>2023-04-04T09:48:32.104Z</time>
      </trkpt>
      <trkpt lat="43.83228" lon="2.97502">
        <ele>563.67</ele>
        <time>2023-04-04T09:48:42.415Z</time>
      </trkpt>
      <trkpt lat="43.83219" lon="2.97519">
        <ele>562.16</ele>
        <time>2023-04-04T09:48:52.944Z</time>
      </trkpt>
      <trkpt lat="43.83209" lon="2.97531">
        <ele>565.42</ele>
        <time>2023-04-04T09:49:03.343Z</time>
      </trkpt>
      <trkpt lat="43.83202" lon="2.97542">
        <ele>568.35</ele>
        <time>2023-04-04T09:49:13.374Z</time>
      </trkpt>
      <trkpt lat="43.83195" lon="2.97553">
        <ele>570.4</ele>
        <time>2023-04-04T09:49:23.784Z</time>
      </trkpt>
      <trkpt lat="43.83189" lon="2.97564">
        <ele>570.41</ele>
        <time>2023-04-04T09:49:34.233Z</time>
      </trkpt>
      <trkpt lat="43.8318" lon="2.97576">
        <ele>572.42</ele>
        <time>2023-04-04T09:49:45.254Z</time>
      </trkpt>
      <trkpt lat="43.83171" lon="2.97592">
        <ele>573.41</ele>
        <time>2023-04-04T09:49:56.254Z</time>
      </trkpt>
      <trkpt lat="43.83163" lon="2.97604">
        <ele>573.41</ele>
        <time>2023-04-04T09:50:06.691Z</time>
      </trkpt>
      <trkpt lat="43.83157" lon="2.97612">
        <ele>572.43</ele>
        <time>2023-04-04T09:50:17.585Z</time>
      </trkpt>
      <trkpt lat="43.83152" lon="2.97615">
        <ele>571.41</ele>
        <time>2023-04-04T09:50:27.994Z</time>
      </trkpt>
      <trkpt lat="43.83146" lon="2.97625">
        <ele>573.41</ele>
        <time>2023-04-04T09:50:38.384Z</time>
      </trkpt>
      <trkpt lat="43.83141" lon="2.97637">
        <ele>574.35</ele>
        <time>2023-04-04T09:50:48.386Z</time>
      </trkpt>
      <trkpt lat="43.83135" lon="2.97649">
        <ele>575.41</ele>
        <time>2023-04-04T09:50:58.714Z</time>
      </trkpt>
      <trkpt lat="43.83129" lon="2.97664">
        <ele>577.34</ele>
        <time>2023-04-04T09:51:09.096Z</time>
      </trkpt>
      <trkpt lat="43.83123" lon="2.97676">
        <ele>578.41</ele>
        <time>2023-04-04T09:51:19.395Z</time>
      </trkpt>
      <trkpt lat="43.83114" lon="2.97688">
        <ele>577.41</ele>
        <time>2023-04-04T09:51:29.425Z</time>
      </trkpt>
      <trkpt lat="43.83107" lon="2.97701">
        <ele>576.65</ele>
        <time>2023-04-04T09:51:39.736Z</time>
      </trkpt>
      <trkpt lat="43.83101" lon="2.97708">
        <ele>579.35</ele>
        <time>2023-04-04T09:51:50.574Z</time>
      </trkpt>
      <trkpt lat="43.83093" lon="2.97718">
        <ele>578.43</ele>
        <time>2023-04-04T09:52:01.065Z</time>
      </trkpt>
      <trkpt lat="43.83084" lon="2.97728">
        <ele>579.41</ele>
        <time>2023-04-04T09:52:11.545Z</time>
      </trkpt>
      <trkpt lat="43.83075" lon="2.97736">
        <ele>582.18</ele>
        <time>2023-04-04T09:52:21.925Z</time>
      </trkpt>
      <trkpt lat="43.83069" lon="2.97741">
        <ele>583.41</ele>
        <time>2023-04-04T09:52:32.344Z</time>
      </trkpt>
      <trkpt lat="43.83057" lon="2.97749">
        <ele>583.66</ele>
        <time>2023-04-04T09:52:43.336Z</time>
      </trkpt>
      <trkpt lat="43.83049" lon="2.97756">
        <ele>586.16</ele>
        <time>2023-04-04T09:52:53.345Z</time>
      </trkpt>
      <trkpt lat="43.8304" lon="2.97762">
        <ele>587.42</ele>
        <time>2023-04-04T09:53:03.676Z</time>
      </trkpt>
      <trkpt lat="43.8303" lon="2.97764">
        <ele>586.43</ele>
        <time>2023-04-04T09:53:14.116Z</time>
      </trkpt>
      <trkpt lat="43.83027" lon="2.97759">
        <ele>584.42</ele>
        <time>2023-04-04T09:53:24.615Z</time>
      </trkpt>
      <trkpt lat="43.8303" lon="2.97755">
        <ele>588.43</ele>
        <time>2023-04-04T09:53:34.974Z</time>
      </trkpt>
      <trkpt lat="43.83036" lon="2.97746">
        <ele>591.21</ele>
        <time>2023-04-04T09:53:45.425Z</time>
      </trkpt>
      <trkpt lat="43.83042" lon="2.97732">
        <ele>595.4</ele>
        <time>2023-04-04T09:53:55.746Z</time>
      </trkpt>
      <trkpt lat="43.83045" lon="2.97718">
        <ele>598.4</ele>
        <time>2023-04-04T09:54:06.136Z</time>
      </trkpt>
      <trkpt lat="43.83049" lon="2.9771">
        <ele>598.17</ele>
        <time>2023-04-04T09:54:16.706Z</time>
      </trkpt>
      <trkpt lat="43.83053" lon="2.97697">
        <ele>599.41</ele>
        <time>2023-04-04T09:54:26.965Z</time>
      </trkpt>
      <trkpt lat="43.83058" lon="2.97685">
        <ele>604.16</ele>
        <time>2023-04-04T09:54:37.315Z</time>
      </trkpt>
      <trkpt lat="43.83063" lon="2.97668">
        <ele>605.36</ele>
        <time>2023-04-04T09:54:47.315Z</time>
      </trkpt>
      <trkpt lat="43.83069" lon="2.97653">
        <ele>605.17</ele>
        <time>2023-04-04T09:54:57.855Z</time>
      </trkpt>
      <trkpt lat="43.83073" lon="2.97637">
        <ele>604.42</ele>
        <time>2023-04-04T09:55:08.265Z</time>
      </trkpt>
      <trkpt lat="43.83073" lon="2.97631">
        <ele>607.16</ele>
        <time>2023-04-04T09:55:18.696Z</time>
      </trkpt>
      <trkpt lat="43.83075" lon="2.97613">
        <ele>611.41</ele>
        <time>2023-04-04T09:55:29.626Z</time>
      </trkpt>
      <trkpt lat="43.83077" lon="2.97593">
        <ele>612.17</ele>
        <time>2023-04-04T09:55:40.074Z</time>
      </trkpt>
      <trkpt lat="43.83079" lon="2.97579">
        <ele>613.41</ele>
        <time>2023-04-04T09:55:50.436Z</time>
      </trkpt>
      <trkpt lat="43.8308" lon="2.97567">
        <ele>613.42</ele>
        <time>2023-04-04T09:56:01.414Z</time>
      </trkpt>
      <trkpt lat="43.83079" lon="2.97548">
        <ele>613.18</ele>
        <time>2023-04-04T09:56:11.884Z</time>
      </trkpt>
      <trkpt lat="43.83079" lon="2.97533">
        <ele>612.42</ele>
        <time>2023-04-04T09:56:22.245Z</time>
      </trkpt>
      <trkpt lat="43.8308" lon="2.97522">
        <ele>612.42</ele>
        <time>2023-04-04T09:56:32.700Z</time>
      </trkpt>
      <trkpt lat="43.83081" lon="2.97505">
        <ele>614.42</ele>
        <time>2023-04-04T09:56:43.115Z</time>
      </trkpt>
      <trkpt lat="43.83082" lon="2.97491">
        <ele>617.41</ele>
        <time>2023-04-04T09:56:53.425Z</time>
      </trkpt>
      <trkpt lat="43.83087" lon="2.97477">
        <ele>618.17</ele>
        <time>2023-04-04T09:57:03.946Z</time>
      </trkpt>
      <trkpt lat="43.83091" lon="2.97465">
        <ele>622.42</ele>
        <time>2023-04-04T09:57:14.315Z</time>
      </trkpt>
      <trkpt lat="43.83093" lon="2.97455">
        <ele>625.68</ele>
        <time>2023-04-04T09:57:25.384Z</time>
      </trkpt>
      <trkpt lat="43.83096" lon="2.97444">
        <ele>622.48</ele>
        <time>2023-04-04T09:57:35.386Z</time>
      </trkpt>
      <trkpt lat="43.831" lon="2.97433">
        <ele>622.41</ele>
        <time>2023-04-04T09:57:45.585Z</time>
      </trkpt>
      <trkpt lat="43.83101" lon="2.97432">
        <ele>621.42</ele>
        <time>2023-04-04T09:57:56.524Z</time>
      </trkpt>
      <trkpt lat="43.83103" lon="2.97433">
        <ele>620.42</ele>
        <time>2023-04-04T09:58:06.712Z</time>
      </trkpt>
      <trkpt lat="43.83104" lon="2.97432">
        <ele>621.4</ele>
        <time>2023-04-04T09:58:32.626Z</time>
      </trkpt>
      <trkpt lat="43.83103" lon="2.97431">
        <ele>623.42</ele>
        <time>2023-04-04T09:58:43.505Z</time>
      </trkpt>
      <trkpt lat="43.83103" lon="2.97431">
        <ele>624.4</ele>
        <time>2023-04-04T09:58:59.985Z</time>
      </trkpt>
      <trkpt lat="43.83106" lon="2.97435">
        <ele>623.4</ele>
        <time>2023-04-04T09:59:10.696Z</time>
      </trkpt>
      <trkpt lat="43.83106" lon="2.97433">
        <ele>625.42</ele>
        <time>2023-04-04T09:59:21.695Z</time>
      </trkpt>
      <trkpt lat="43.83111" lon="2.9743">
        <ele>626.48</ele>
        <time>2023-04-04T09:59:31.704Z</time>
      </trkpt>
      <trkpt lat="43.8312" lon="2.97418">
        <ele>624.48</ele>
        <time>2023-04-04T09:59:42.700Z</time>
      </trkpt>
      <trkpt lat="43.83128" lon="2.97408">
        <ele>622.48</ele>
        <time>2023-04-04T09:59:52.702Z</time>
      </trkpt>
      <trkpt lat="43.83129" lon="2.97406">
        <ele>623.42</ele>
        <time>2023-04-04T10:00:03.712Z</time>
      </trkpt>
      <trkpt lat="43.83132" lon="2.97403">
        <ele>621.46</ele>
        <time>2023-04-04T10:00:14.694Z</time>
      </trkpt>
      <trkpt lat="43.83138" lon="2.97393">
        <ele>621.42</ele>
        <time>2023-04-04T10:00:24.699Z</time>
      </trkpt>
      <trkpt lat="43.83143" lon="2.97386">
        <ele>622.42</ele>
        <time>2023-04-04T10:00:34.703Z</time>
      </trkpt>
      <trkpt lat="43.83153" lon="2.97368">
        <ele>620.68</ele>
        <time>2023-04-04T10:00:45.678Z</time>
      </trkpt>
      <trkpt lat="43.83159" lon="2.97353">
        <ele>619.48</ele>
        <time>2023-04-04T10:00:55.701Z</time>
      </trkpt>
      <trkpt lat="43.83166" lon="2.97337">
        <ele>620.48</ele>
        <time>2023-04-04T10:01:06.017Z</time>
      </trkpt>
      <trkpt lat="43.83172" lon="2.97321">
        <ele>622.42</ele>
        <time>2023-04-04T10:01:16.447Z</time>
      </trkpt>
      <trkpt lat="43.83176" lon="2.9731">
        <ele>621.42</ele>
        <time>2023-04-04T10:01:26.927Z</time>
      </trkpt>
      <trkpt lat="43.8318" lon="2.973">
        <ele>621.43</ele>
        <time>2023-04-04T10:01:37.207Z</time>
      </trkpt>
      <trkpt lat="43.83182" lon="2.97289">
        <ele>622.65</ele>
        <time>2023-04-04T10:01:47.576Z</time>
      </trkpt>
      <trkpt lat="43.83188" lon="2.97285">
        <ele>622.4</ele>
        <time>2023-04-04T10:01:58.096Z</time>
      </trkpt>
      <trkpt lat="43.83201" lon="2.97283">
        <ele>625.41</ele>
        <time>2023-04-04T10:02:08.476Z</time>
      </trkpt>
      <trkpt lat="43.8321" lon="2.9728">
        <ele>625.41</ele>
        <time>2023-04-04T10:02:18.567Z</time>
      </trkpt>
      <trkpt lat="43.83221" lon="2.9728">
        <ele>624.41</ele>
        <time>2023-04-04T10:02:28.917Z</time>
      </trkpt>
      <trkpt lat="43.83228" lon="2.97281">
        <ele>622.41</ele>
        <time>2023-04-04T10:02:39.315Z</time>
      </trkpt>
      <trkpt lat="43.83229" lon="2.97282">
        <ele>624.16</ele>
        <time>2023-04-04T10:03:53.717Z</time>
      </trkpt>
      <trkpt lat="43.83231" lon="2.97284">
        <ele>624.42</ele>
        <time>2023-04-04T10:04:03.866Z</time>
      </trkpt>
      <trkpt lat="43.83243" lon="2.97284">
        <ele>620.42</ele>
        <time>2023-04-04T10:04:14.396Z</time>
      </trkpt>
      <trkpt lat="43.83248" lon="2.97286">
        <ele>618.41</ele>
        <time>2023-04-04T10:04:24.449Z</time>
      </trkpt>
      <trkpt lat="43.83249" lon="2.97287">
        <ele>619.91</ele>
        <time>2023-04-04T10:04:35.995Z</time>
      </trkpt>
      <trkpt lat="43.83254" lon="2.9729">
        <ele>619.41</ele>
        <time>2023-04-04T10:04:46.676Z</time>
      </trkpt>
      <trkpt lat="43.83254" lon="2.97288">
        <ele>618.66</ele>
        <time>2023-04-04T10:05:19.694Z</time>
      </trkpt>
      <trkpt lat="43.83255" lon="2.97288">
        <ele>618.41</ele>
        <time>2023-04-04T10:06:19.683Z</time>
      </trkpt>
      <trkpt lat="43.83256" lon="2.97289">
        <ele>620.41</ele>
        <time>2023-04-04T10:06:29.696Z</time>
      </trkpt>
      <trkpt lat="43.83256" lon="2.9729">
        <ele>620.41</ele>
        <time>2023-04-04T10:06:39.705Z</time>
      </trkpt>
      <trkpt lat="43.83257" lon="2.9729">
        <ele>621.16</ele>
        <time>2023-04-04T10:06:51.709Z</time>
      </trkpt>
      <trkpt lat="43.83266" lon="2.97286">
        <ele>624.4</ele>
        <time>2023-04-04T10:07:02.067Z</time>
      </trkpt>
      <trkpt lat="43.83274" lon="2.97281">
        <ele>626.35</ele>
        <time>2023-04-04T10:07:12.366Z</time>
      </trkpt>
      <trkpt lat="43.83282" lon="2.97268">
        <ele>627.16</ele>
        <time>2023-04-04T10:07:22.697Z</time>
      </trkpt>
      <trkpt lat="43.83289" lon="2.97256">
        <ele>628.35</ele>
        <time>2023-04-04T10:07:33.155Z</time>
      </trkpt>
      <trkpt lat="43.83293" lon="2.97245">
        <ele>632.35</ele>
        <time>2023-04-04T10:07:43.596Z</time>
      </trkpt>
      <trkpt lat="43.833" lon="2.97232">
        <ele>633.37</ele>
        <time>2023-04-04T10:07:54.634Z</time>
      </trkpt>
      <trkpt lat="43.83308" lon="2.9722">
        <ele>633.66</ele>
        <time>2023-04-04T10:08:05.067Z</time>
      </trkpt>
      <trkpt lat="43.83316" lon="2.97206">
        <ele>633.41</ele>
        <time>2023-04-04T10:08:15.494Z</time>
      </trkpt>
      <trkpt lat="43.83321" lon="2.97195">
        <ele>634.41</ele>
        <time>2023-04-04T10:08:25.966Z</time>
      </trkpt>
      <trkpt lat="43.83326" lon="2.97184">
        <ele>635.41</ele>
        <time>2023-04-04T10:08:36.367Z</time>
      </trkpt>
      <trkpt lat="43.83332" lon="2.97174">
        <ele>641.41</ele>
        <time>2023-04-04T10:08:46.855Z</time>
      </trkpt>
      <trkpt lat="43.8334" lon="2.97158">
        <ele>641.41</ele>
        <time>2023-04-04T10:08:57.307Z</time>
      </trkpt>
      <trkpt lat="43.83345" lon="2.97151">
        <ele>643.41</ele>
        <time>2023-04-04T10:09:07.654Z</time>
      </trkpt>
      <trkpt lat="43.8335" lon="2.97137">
        <ele>644.47</ele>
        <time>2023-04-04T10:09:18.640Z</time>
      </trkpt>
      <trkpt lat="43.83353" lon="2.97125">
        <ele>644.41</ele>
        <time>2023-04-04T10:09:28.667Z</time>
      </trkpt>
      <trkpt lat="43.83359" lon="2.9711">
        <ele>644.35</ele>
        <time>2023-04-04T10:09:38.973Z</time>
      </trkpt>
      <trkpt lat="43.83366" lon="2.97092">
        <ele>643.41</ele>
        <time>2023-04-04T10:09:49.487Z</time>
      </trkpt>
      <trkpt lat="43.83367" lon="2.97081">
        <ele>642.43</ele>
        <time>2023-04-04T10:09:59.887Z</time>
      </trkpt>
      <trkpt lat="43.83369" lon="2.97063">
        <ele>641.42</ele>
        <time>2023-04-04T10:10:10.456Z</time>
      </trkpt>
      <trkpt lat="43.83373" lon="2.97048">
        <ele>641.66</ele>
        <time>2023-04-04T10:10:20.879Z</time>
      </trkpt>
      <trkpt lat="43.83373" lon="2.97035">
        <ele>639.66</ele>
        <time>2023-04-04T10:10:31.415Z</time>
      </trkpt>
      <trkpt lat="43.8337" lon="2.9702">
        <ele>642.41</ele>
        <time>2023-04-04T10:10:41.782Z</time>
      </trkpt>
      <trkpt lat="43.83367" lon="2.9701">
        <ele>642.66</ele>
        <time>2023-04-04T10:10:52.166Z</time>
      </trkpt>
      <trkpt lat="43.83362" lon="2.96994">
        <ele>640.41</ele>
        <time>2023-04-04T10:11:02.576Z</time>
      </trkpt>
      <trkpt lat="43.8336" lon="2.96984">
        <ele>642.41</ele>
        <time>2023-04-04T10:11:13.607Z</time>
      </trkpt>
      <trkpt lat="43.83356" lon="2.96971">
        <ele>640.42</ele>
        <time>2023-04-04T10:11:23.616Z</time>
      </trkpt>
      <trkpt lat="43.8335" lon="2.96959">
        <ele>639.41</ele>
        <time>2023-04-04T10:11:34.087Z</time>
      </trkpt>
      <trkpt lat="43.83343" lon="2.96946">
        <ele>638.41</ele>
        <time>2023-04-04T10:11:44.699Z</time>
      </trkpt>
      <trkpt lat="43.83336" lon="2.96935">
        <ele>639.4</ele>
        <time>2023-04-04T10:11:55.695Z</time>
      </trkpt>
      <trkpt lat="43.83331" lon="2.96925">
        <ele>641.4</ele>
        <time>2023-04-04T10:12:05.696Z</time>
      </trkpt>
      <trkpt lat="43.8333" lon="2.96922">
        <ele>641.41</ele>
        <time>2023-04-04T10:12:16.701Z</time>
      </trkpt>
      <trkpt lat="43.83328" lon="2.96922">
        <ele>640.66</ele>
        <time>2023-04-04T10:12:27.698Z</time>
      </trkpt>
      <trkpt lat="43.83319" lon="2.96913">
        <ele>643.41</ele>
        <time>2023-04-04T10:12:37.701Z</time>
      </trkpt>
      <trkpt lat="43.83309" lon="2.96904">
        <ele>645.4</ele>
        <time>2023-04-04T10:12:48.701Z</time>
      </trkpt>
      <trkpt lat="43.83301" lon="2.96901">
        <ele>646.41</ele>
        <time>2023-04-04T10:12:58.701Z</time>
      </trkpt>
      <trkpt lat="43.8329" lon="2.969">
        <ele>646.42</ele>
        <time>2023-04-04T10:13:08.704Z</time>
      </trkpt>
      <trkpt lat="43.83288" lon="2.969">
        <ele>645.42</ele>
        <time>2023-04-04T10:13:19.700Z</time>
      </trkpt>
      <trkpt lat="43.83289" lon="2.969">
        <ele>645.42</ele>
        <time>2023-04-04T10:13:32.693Z</time>
      </trkpt>
      <trkpt lat="43.83287" lon="2.96901">
        <ele>646.17</ele>
        <time>2023-04-04T10:13:53.698Z</time>
      </trkpt>
      <trkpt lat="43.83287" lon="2.96903">
        <ele>649.35</ele>
        <time>2023-04-04T10:14:04.693Z</time>
      </trkpt>
      <trkpt lat="43.83292" lon="2.96906">
        <ele>650.42</ele>
        <time>2023-04-04T10:14:14.702Z</time>
      </trkpt>
      <trkpt lat="43.83301" lon="2.96915">
        <ele>651.48</ele>
        <time>2023-04-04T10:14:24.708Z</time>
      </trkpt>
      <trkpt lat="43.8331" lon="2.96926">
        <ele>650.36</ele>
        <time>2023-04-04T10:14:34.708Z</time>
      </trkpt>
      <trkpt lat="43.83316" lon="2.96942">
        <ele>649.42</ele>
        <time>2023-04-04T10:14:45.678Z</time>
      </trkpt>
      <trkpt lat="43.83319" lon="2.96956">
        <ele>648.43</ele>
        <time>2023-04-04T10:14:55.694Z</time>
      </trkpt>
      <trkpt lat="43.8332" lon="2.96969">
        <ele>650.4</ele>
        <time>2023-04-04T10:15:05.703Z</time>
      </trkpt>
      <trkpt lat="43.83322" lon="2.96984">
        <ele>650.41</ele>
        <time>2023-04-04T10:15:15.705Z</time>
      </trkpt>
      <trkpt lat="43.8332" lon="2.97">
        <ele>652.41</ele>
        <time>2023-04-04T10:15:26.695Z</time>
      </trkpt>
      <trkpt lat="43.83316" lon="2.97022">
        <ele>653.4</ele>
        <time>2023-04-04T10:15:36.700Z</time>
      </trkpt>
      <trkpt lat="43.83311" lon="2.97035">
        <ele>654.41</ele>
        <time>2023-04-04T10:15:46.702Z</time>
      </trkpt>
      <trkpt lat="43.83303" lon="2.97035">
        <ele>655.43</ele>
        <time>2023-04-04T10:15:57.700Z</time>
      </trkpt>
      <trkpt lat="43.83297" lon="2.97032">
        <ele>655.41</ele>
        <time>2023-04-04T10:16:07.701Z</time>
      </trkpt>
      <trkpt lat="43.83286" lon="2.97029">
        <ele>656.4</ele>
        <time>2023-04-04T10:16:17.701Z</time>
      </trkpt>
      <trkpt lat="43.83279" lon="2.97024">
        <ele>655.41</ele>
        <time>2023-04-04T10:16:27.853Z</time>
      </trkpt>
      <trkpt lat="43.83271" lon="2.97019">
        <ele>655.41</ele>
        <time>2023-04-04T10:16:38.195Z</time>
      </trkpt>
      <trkpt lat="43.83265" lon="2.97015">
        <ele>656.41</ele>
        <time>2023-04-04T10:16:48.699Z</time>
      </trkpt>
      <trkpt lat="43.83261" lon="2.97015">
        <ele>656.35</ele>
        <time>2023-04-04T10:16:59.645Z</time>
      </trkpt>
      <trkpt lat="43.83257" lon="2.97015">
        <ele>657.42</ele>
        <time>2023-04-04T10:17:10.053Z</time>
      </trkpt>
      <trkpt lat="43.83251" lon="2.97018">
        <ele>661.1</ele>
        <time>2023-04-04T10:17:20.583Z</time>
      </trkpt>
      <trkpt lat="43.83242" lon="2.97022">
        <ele>662.42</ele>
        <time>2023-04-04T10:17:31.612Z</time>
      </trkpt>
      <trkpt lat="43.83237" lon="2.97024">
        <ele>664.41</ele>
        <time>2023-04-04T10:17:42.533Z</time>
      </trkpt>
      <trkpt lat="43.83229" lon="2.97028">
        <ele>665.42</ele>
        <time>2023-04-04T10:17:52.873Z</time>
      </trkpt>
      <trkpt lat="43.83224" lon="2.9703">
        <ele>668.15</ele>
        <time>2023-04-04T10:18:03.453Z</time>
      </trkpt>
      <trkpt lat="43.83219" lon="2.97035">
        <ele>669.42</ele>
        <time>2023-04-04T10:18:13.893Z</time>
      </trkpt>
      <trkpt lat="43.8321" lon="2.97042">
        <ele>672.42</ele>
        <time>2023-04-04T10:18:24.353Z</time>
      </trkpt>
      <trkpt lat="43.83201" lon="2.97049">
        <ele>671.42</ele>
        <time>2023-04-04T10:18:34.393Z</time>
      </trkpt>
      <trkpt lat="43.83194" lon="2.97047">
        <ele>669.42</ele>
        <time>2023-04-04T10:18:45.444Z</time>
      </trkpt>
      <trkpt lat="43.83193" lon="2.97051">
        <ele>669.17</ele>
        <time>2023-04-04T10:18:55.893Z</time>
      </trkpt>
      <trkpt lat="43.83192" lon="2.97053">
        <ele>669.42</ele>
        <time>2023-04-04T10:19:06.334Z</time>
      </trkpt>
      <trkpt lat="43.83192" lon="2.97056">
        <ele>672.4</ele>
        <time>2023-04-04T10:19:17.322Z</time>
      </trkpt>
      <trkpt lat="43.83192" lon="2.97058">
        <ele>672.42</ele>
        <time>2023-04-04T10:19:30.155Z</time>
      </trkpt>
      <trkpt lat="43.83187" lon="2.97068">
        <ele>671.43</ele>
        <time>2023-04-04T10:19:40.553Z</time>
      </trkpt>
      <trkpt lat="43.83182" lon="2.97076">
        <ele>673.42</ele>
        <time>2023-04-04T10:19:51.653Z</time>
      </trkpt>
      <trkpt lat="43.83178" lon="2.9708">
        <ele>673.42</ele>
        <time>2023-04-04T10:20:02.113Z</time>
      </trkpt>
      <trkpt lat="43.83175" lon="2.97086">
        <ele>674.41</ele>
        <time>2023-04-04T10:20:12.534Z</time>
      </trkpt>
      <trkpt lat="43.83169" lon="2.97094">
        <ele>675.4</ele>
        <time>2023-04-04T10:20:23.092Z</time>
      </trkpt>
      <trkpt lat="43.83164" lon="2.97105">
        <ele>676.17</ele>
        <time>2023-04-04T10:20:33.164Z</time>
      </trkpt>
      <trkpt lat="43.83158" lon="2.97114">
        <ele>678.17</ele>
        <time>2023-04-04T10:20:43.473Z</time>
      </trkpt>
      <trkpt lat="43.83149" lon="2.97127">
        <ele>679.43</ele>
        <time>2023-04-04T10:20:54.026Z</time>
      </trkpt>
      <trkpt lat="43.8314" lon="2.97139">
        <ele>681.36</ele>
        <time>2023-04-04T10:21:04.482Z</time>
      </trkpt>
      <trkpt lat="43.83134" lon="2.9715">
        <ele>682.42</ele>
        <time>2023-04-04T10:21:14.854Z</time>
      </trkpt>
      <trkpt lat="43.83129" lon="2.97164">
        <ele>683.42</ele>
        <time>2023-04-04T10:21:25.313Z</time>
      </trkpt>
      <trkpt lat="43.83127" lon="2.97179">
        <ele>685.35</ele>
        <time>2023-04-04T10:21:35.323Z</time>
      </trkpt>
      <trkpt lat="43.83121" lon="2.9719">
        <ele>684.16</ele>
        <time>2023-04-04T10:21:45.693Z</time>
      </trkpt>
      <trkpt lat="43.83111" lon="2.97202">
        <ele>683.42</ele>
        <time>2023-04-04T10:21:55.984Z</time>
      </trkpt>
      <trkpt lat="43.83104" lon="2.97216">
        <ele>683.48</ele>
        <time>2023-04-04T10:22:06.403Z</time>
      </trkpt>
      <trkpt lat="43.83096" lon="2.9723">
        <ele>681.42</ele>
        <time>2023-04-04T10:22:16.712Z</time>
      </trkpt>
      <trkpt lat="43.83088" lon="2.97244">
        <ele>683.42</ele>
        <time>2023-04-04T10:22:26.993Z</time>
      </trkpt>
      <trkpt lat="43.8308" lon="2.97254">
        <ele>680.42</ele>
        <time>2023-04-04T10:22:37.444Z</time>
      </trkpt>
      <trkpt lat="43.83073" lon="2.97267">
        <ele>677.42</ele>
        <time>2023-04-04T10:22:47.663Z</time>
      </trkpt>
      <trkpt lat="43.83064" lon="2.97278">
        <ele>678.42</ele>
        <time>2023-04-04T10:22:58.627Z</time>
      </trkpt>
      <trkpt lat="43.83059" lon="2.97288">
        <ele>680.4</ele>
        <time>2023-04-04T10:23:08.694Z</time>
      </trkpt>
      <trkpt lat="43.83055" lon="2.97299">
        <ele>679.43</ele>
        <time>2023-04-04T10:23:18.694Z</time>
      </trkpt>
      <trkpt lat="43.83046" lon="2.97312">
        <ele>679.48</ele>
        <time>2023-04-04T10:23:29.695Z</time>
      </trkpt>
      <trkpt lat="43.83038" lon="2.97323">
        <ele>678.4</ele>
        <time>2023-04-04T10:23:40.193Z</time>
      </trkpt>
      <trkpt lat="43.83032" lon="2.97334">
        <ele>677.48</ele>
        <time>2023-04-04T10:23:50.233Z</time>
      </trkpt>
      <trkpt lat="43.83026" lon="2.97343">
        <ele>676.42</ele>
        <time>2023-04-04T10:24:00.623Z</time>
      </trkpt>
      <trkpt lat="43.83016" lon="2.97357">
        <ele>672.42</ele>
        <time>2023-04-04T10:24:11.133Z</time>
      </trkpt>
      <trkpt lat="43.83012" lon="2.97368">
        <ele>672.48</ele>
        <time>2023-04-04T10:24:21.405Z</time>
      </trkpt>
      <trkpt lat="43.83012" lon="2.97374">
        <ele>672.42</ele>
        <time>2023-04-04T10:24:31.853Z</time>
      </trkpt>
      <trkpt lat="43.83014" lon="2.97381">
        <ele>672.42</ele>
        <time>2023-04-04T10:24:42.433Z</time>
      </trkpt>
      <trkpt lat="43.83013" lon="2.97381">
        <ele>665.7</ele>
        <time>2023-04-04T10:26:53.576Z</time>
      </trkpt>
      <trkpt lat="43.83011" lon="2.97377">
        <ele>664.42</ele>
        <time>2023-04-04T10:27:04.574Z</time>
      </trkpt>
      <trkpt lat="43.83011" lon="2.97375">
        <ele>664.42</ele>
        <time>2023-04-04T10:27:15.583Z</time>
      </trkpt>
      <trkpt lat="43.8301" lon="2.97377">
        <ele>664.17</ele>
        <time>2023-04-04T10:28:10.676Z</time>
      </trkpt>
      <trkpt lat="43.83009" lon="2.97377">
        <ele>662.47</ele>
        <time>2023-04-04T10:28:21.389Z</time>
      </trkpt>
      <trkpt lat="43.83008" lon="2.97378">
        <ele>662.4</ele>
        <time>2023-04-04T10:28:33.433Z</time>
      </trkpt>
      <trkpt lat="43.83006" lon="2.97377">
        <ele>661.42</ele>
        <time>2023-04-04T10:28:43.789Z</time>
      </trkpt>
      <trkpt lat="43.83005" lon="2.97378">
        <ele>661.42</ele>
        <time>2023-04-04T10:29:11.264Z</time>
      </trkpt>
      <trkpt lat="43.83006" lon="2.9738">
        <ele>662.42</ele>
        <time>2023-04-04T10:29:22.313Z</time>
      </trkpt>
      <trkpt lat="43.83005" lon="2.97382">
        <ele>661.4</ele>
        <time>2023-04-04T10:30:13.163Z</time>
      </trkpt>
      <trkpt lat="43.83" lon="2.97394">
        <ele>663.42</ele>
        <time>2023-04-04T10:30:23.604Z</time>
      </trkpt>
      <trkpt lat="43.82994" lon="2.97409">
        <ele>660.48</ele>
        <time>2023-04-04T10:30:33.993Z</time>
      </trkpt>
      <trkpt lat="43.82989" lon="2.97423">
        <ele>660.48</ele>
        <time>2023-04-04T10:30:44.513Z</time>
      </trkpt>
      <trkpt lat="43.82985" lon="2.9744">
        <ele>659.42</ele>
        <time>2023-04-04T10:30:54.984Z</time>
      </trkpt>
      <trkpt lat="43.8298" lon="2.97456">
        <ele>659.48</ele>
        <time>2023-04-04T10:31:05.464Z</time>
      </trkpt>
      <trkpt lat="43.82973" lon="2.97473">
        <ele>656.42</ele>
        <time>2023-04-04T10:31:16.453Z</time>
      </trkpt>
      <trkpt lat="43.82965" lon="2.97489">
        <ele>657.42</ele>
        <time>2023-04-04T10:31:26.874Z</time>
      </trkpt>
      <trkpt lat="43.82959" lon="2.97507">
        <ele>655.48</ele>
        <time>2023-04-04T10:31:37.353Z</time>
      </trkpt>
      <trkpt lat="43.82953" lon="2.97525">
        <ele>655.36</ele>
        <time>2023-04-04T10:31:47.603Z</time>
      </trkpt>
      <trkpt lat="43.82949" lon="2.9754">
        <ele>658.42</ele>
        <time>2023-04-04T10:31:58.062Z</time>
      </trkpt>
      <trkpt lat="43.82946" lon="2.97555">
        <ele>657.65</ele>
        <time>2023-04-04T10:32:08.572Z</time>
      </trkpt>
      <trkpt lat="43.8294" lon="2.97573">
        <ele>657.42</ele>
        <time>2023-04-04T10:32:19.094Z</time>
      </trkpt>
      <trkpt lat="43.82934" lon="2.97592">
        <ele>655.17</ele>
        <time>2023-04-04T10:32:29.594Z</time>
      </trkpt>
      <trkpt lat="43.82926" lon="2.97611">
        <ele>654.42</ele>
        <time>2023-04-04T10:32:39.676Z</time>
      </trkpt>
      <trkpt lat="43.82921" lon="2.97628">
        <ele>655.42</ele>
        <time>2023-04-04T10:32:49.993Z</time>
      </trkpt>
      <trkpt lat="43.82911" lon="2.9764">
        <ele>656.42</ele>
        <time>2023-04-04T10:33:00.385Z</time>
      </trkpt>
      <trkpt lat="43.82901" lon="2.97652">
        <ele>656.42</ele>
        <time>2023-04-04T10:33:10.802Z</time>
      </trkpt>
      <trkpt lat="43.82891" lon="2.9767">
        <ele>656.48</ele>
        <time>2023-04-04T10:33:21.295Z</time>
      </trkpt>
      <trkpt lat="43.82881" lon="2.97684">
        <ele>657.42</ele>
        <time>2023-04-04T10:33:31.725Z</time>
      </trkpt>
      <trkpt lat="43.82872" lon="2.977">
        <ele>656.42</ele>
        <time>2023-04-04T10:33:42.254Z</time>
      </trkpt>
      <trkpt lat="43.82862" lon="2.97712">
        <ele>654.42</ele>
        <time>2023-04-04T10:33:52.732Z</time>
      </trkpt>
      <trkpt lat="43.82853" lon="2.97723">
        <ele>654.42</ele>
        <time>2023-04-04T10:34:03.313Z</time>
      </trkpt>
      <trkpt lat="43.8284" lon="2.9773">
        <ele>654.65</ele>
        <time>2023-04-04T10:34:13.725Z</time>
      </trkpt>
      <trkpt lat="43.82831" lon="2.9773">
        <ele>655.17</ele>
        <time>2023-04-04T10:34:24.644Z</time>
      </trkpt>
      <trkpt lat="43.82826" lon="2.97727">
        <ele>657.17</ele>
        <time>2023-04-04T10:34:34.974Z</time>
      </trkpt>
      <trkpt lat="43.82818" lon="2.97716">
        <ele>657.36</ele>
        <time>2023-04-04T10:34:45.496Z</time>
      </trkpt>
      <trkpt lat="43.82808" lon="2.97706">
        <ele>657.42</ele>
        <time>2023-04-04T10:34:55.555Z</time>
      </trkpt>
      <trkpt lat="43.82803" lon="2.97705">
        <ele>656.42</ele>
        <time>2023-04-04T10:35:06.474Z</time>
      </trkpt>
      <trkpt lat="43.82802" lon="2.97704">
        <ele>656.42</ele>
        <time>2023-04-04T10:35:28.710Z</time>
      </trkpt>
      <trkpt lat="43.82794" lon="2.97702">
        <ele>657.42</ele>
        <time>2023-04-04T10:35:39.143Z</time>
      </trkpt>
      <trkpt lat="43.82781" lon="2.97698">
        <ele>657.42</ele>
        <time>2023-04-04T10:35:49.564Z</time>
      </trkpt>
      <trkpt lat="43.82769" lon="2.97695">
        <ele>658.44</ele>
        <time>2023-04-04T10:35:59.964Z</time>
      </trkpt>
      <trkpt lat="43.82756" lon="2.97691">
        <ele>658.48</ele>
        <time>2023-04-04T10:36:10.284Z</time>
      </trkpt>
      <trkpt lat="43.82745" lon="2.97687">
        <ele>660.42</ele>
        <time>2023-04-04T10:36:20.674Z</time>
      </trkpt>
      <trkpt lat="43.82732" lon="2.97682">
        <ele>660.42</ele>
        <time>2023-04-04T10:36:31.174Z</time>
      </trkpt>
      <trkpt lat="43.82719" lon="2.97679">
        <ele>658.66</ele>
        <time>2023-04-04T10:36:41.593Z</time>
      </trkpt>
      <trkpt lat="43.82706" lon="2.97679">
        <ele>657.67</ele>
        <time>2023-04-04T10:36:51.604Z</time>
      </trkpt>
      <trkpt lat="43.82693" lon="2.9768">
        <ele>656.49</ele>
        <time>2023-04-04T10:37:01.663Z</time>
      </trkpt>
      <trkpt lat="43.82685" lon="2.97683">
        <ele>654.44</ele>
        <time>2023-04-04T10:37:12.623Z</time>
      </trkpt>
      <trkpt lat="43.82686" lon="2.97684">
        <ele>654.42</ele>
        <time>2023-04-04T10:37:23.573Z</time>
      </trkpt>
      <trkpt lat="43.82685" lon="2.97686">
        <ele>654.42</ele>
        <time>2023-04-04T10:37:33.707Z</time>
      </trkpt>
      <trkpt lat="43.82678" lon="2.97694">
        <ele>654.42</ele>
        <time>2023-04-04T10:37:44.093Z</time>
      </trkpt>
      <trkpt lat="43.8267" lon="2.97701">
        <ele>654.42</ele>
        <time>2023-04-04T10:37:54.572Z</time>
      </trkpt>
      <trkpt lat="43.82659" lon="2.977">
        <ele>657.42</ele>
        <time>2023-04-04T10:38:05.073Z</time>
      </trkpt>
      <trkpt lat="43.82647" lon="2.977">
        <ele>659.42</ele>
        <time>2023-04-04T10:38:15.593Z</time>
      </trkpt>
      <trkpt lat="43.82635" lon="2.97706">
        <ele>658.42</ele>
        <time>2023-04-04T10:38:25.643Z</time>
      </trkpt>
      <trkpt lat="43.82624" lon="2.97717">
        <ele>657.42</ele>
        <time>2023-04-04T10:38:36.093Z</time>
      </trkpt>
      <trkpt lat="43.82621" lon="2.97724">
        <ele>653.43</ele>
        <time>2023-04-04T10:38:46.477Z</time>
      </trkpt>
      <trkpt lat="43.82619" lon="2.97732">
        <ele>650.67</ele>
        <time>2023-04-04T10:38:56.943Z</time>
      </trkpt>
      <trkpt lat="43.82613" lon="2.97739">
        <ele>649.66</ele>
        <time>2023-04-04T10:39:07.373Z</time>
      </trkpt>
      <trkpt lat="43.82608" lon="2.97745">
        <ele>649.42</ele>
        <time>2023-04-04T10:39:18.424Z</time>
      </trkpt>
      <trkpt lat="43.82602" lon="2.97754">
        <ele>647.67</ele>
        <time>2023-04-04T10:39:28.933Z</time>
      </trkpt>
      <trkpt lat="43.82597" lon="2.97766">
        <ele>647.49</ele>
        <time>2023-04-04T10:39:39.384Z</time>
      </trkpt>
      <trkpt lat="43.82591" lon="2.97777">
        <ele>646.42</ele>
        <time>2023-04-04T10:39:49.706Z</time>
      </trkpt>
      <trkpt lat="43.82585" lon="2.97787">
        <ele>644.42</ele>
        <time>2023-04-04T10:40:00.143Z</time>
      </trkpt>
      <trkpt lat="43.82578" lon="2.97798">
        <ele>642.49</ele>
        <time>2023-04-04T10:40:10.483Z</time>
      </trkpt>
      <trkpt lat="43.82571" lon="2.97806">
        <ele>641.43</ele>
        <time>2023-04-04T10:40:20.892Z</time>
      </trkpt>
      <trkpt lat="43.82562" lon="2.97815">
        <ele>640.43</ele>
        <time>2023-04-04T10:40:31.343Z</time>
      </trkpt>
      <trkpt lat="43.82558" lon="2.97824">
        <ele>639.68</ele>
        <time>2023-04-04T10:40:41.412Z</time>
      </trkpt>
      <trkpt lat="43.82556" lon="2.97828">
        <ele>640.18</ele>
        <time>2023-04-04T10:40:51.842Z</time>
      </trkpt>
      <trkpt lat="43.82551" lon="2.97834">
        <ele>640.43</ele>
        <time>2023-04-04T10:41:02.272Z</time>
      </trkpt>
      <trkpt lat="43.82549" lon="2.97835">
        <ele>640.43</ele>
        <time>2023-04-04T10:41:12.347Z</time>
      </trkpt>
      <trkpt lat="43.82549" lon="2.97833">
        <ele>638.55</ele>
        <time>2023-04-04T10:42:00.697Z</time>
      </trkpt>
      <trkpt lat="43.82548" lon="2.97838">
        <ele>639.42</ele>
        <time>2023-04-04T10:42:11.625Z</time>
      </trkpt>
      <trkpt lat="43.82546" lon="2.9784">
        <ele>640.43</ele>
        <time>2023-04-04T10:42:22.133Z</time>
      </trkpt>
      <trkpt lat="43.82543" lon="2.97848">
        <ele>640.43</ele>
        <time>2023-04-04T10:42:32.494Z</time>
      </trkpt>
      <trkpt lat="43.82543" lon="2.9785">
        <ele>639.49</ele>
        <time>2023-04-04T10:42:47.705Z</time>
      </trkpt>
      <trkpt lat="43.82542" lon="2.97851">
        <ele>640.43</ele>
        <time>2023-04-04T10:42:57.706Z</time>
      </trkpt>
      <trkpt lat="43.82541" lon="2.97851">
        <ele>640.42</ele>
        <time>2023-04-04T10:43:07.711Z</time>
      </trkpt>
      <trkpt lat="43.8254" lon="2.9785">
        <ele>640.43</ele>
        <time>2023-04-04T10:43:26.697Z</time>
      </trkpt>
      <trkpt lat="43.82536" lon="2.97843">
        <ele>639.67</ele>
        <time>2023-04-04T10:43:37.408Z</time>
      </trkpt>
      <trkpt lat="43.82536" lon="2.97842">
        <ele>639.43</ele>
        <time>2023-04-04T10:43:55.497Z</time>
      </trkpt>
      <trkpt lat="43.82536" lon="2.97841">
        <ele>639.43</ele>
        <time>2023-04-04T10:44:07.587Z</time>
      </trkpt>
      <trkpt lat="43.82536" lon="2.97842">
        <ele>639.43</ele>
        <time>2023-04-04T10:44:32.701Z</time>
      </trkpt>
      <trkpt lat="43.8254" lon="2.97845">
        <ele>639.42</ele>
        <time>2023-04-04T10:44:43.576Z</time>
      </trkpt>
      <trkpt lat="43.82539" lon="2.97846">
        <ele>639.43</ele>
        <time>2023-04-04T10:44:58.710Z</time>
      </trkpt>
      <trkpt lat="43.82537" lon="2.97845">
        <ele>638.49</ele>
        <time>2023-04-04T10:45:16.682Z</time>
      </trkpt>
      <trkpt lat="43.8253" lon="2.97845">
        <ele>639.38</ele>
        <time>2023-04-04T10:45:27.716Z</time>
      </trkpt>
      <trkpt lat="43.82526" lon="2.97848">
        <ele>639.36</ele>
        <time>2023-04-04T10:45:38.128Z</time>
      </trkpt>
      <trkpt lat="43.82516" lon="2.97849">
        <ele>640.36</ele>
        <time>2023-04-04T10:45:48.604Z</time>
      </trkpt>
      <trkpt lat="43.82508" lon="2.9785">
        <ele>640.43</ele>
        <time>2023-04-04T10:45:58.637Z</time>
      </trkpt>
      <trkpt lat="43.82497" lon="2.9785">
        <ele>639.43</ele>
        <time>2023-04-04T10:46:09.048Z</time>
      </trkpt>
      <trkpt lat="43.82486" lon="2.97852">
        <ele>638.43</ele>
        <time>2023-04-04T10:46:19.467Z</time>
      </trkpt>
      <trkpt lat="43.82475" lon="2.97855">
        <ele>638.43</ele>
        <time>2023-04-04T10:46:29.857Z</time>
      </trkpt>
      <trkpt lat="43.82466" lon="2.97857">
        <ele>638.43</ele>
        <time>2023-04-04T10:46:40.137Z</time>
      </trkpt>
      <trkpt lat="43.82459" lon="2.97858">
        <ele>639.36</ele>
        <time>2023-04-04T10:46:50.487Z</time>
      </trkpt>
      <trkpt lat="43.8245" lon="2.97856">
        <ele>638.43</ele>
        <time>2023-04-04T10:47:00.876Z</time>
      </trkpt>
      <trkpt lat="43.8244" lon="2.97854">
        <ele>637.43</ele>
        <time>2023-04-04T10:47:11.348Z</time>
      </trkpt>
      <trkpt lat="43.82431" lon="2.97849">
        <ele>638.18</ele>
        <time>2023-04-04T10:47:21.707Z</time>
      </trkpt>
      <trkpt lat="43.82422" lon="2.97845">
        <ele>639.43</ele>
        <time>2023-04-04T10:47:32.097Z</time>
      </trkpt>
      <trkpt lat="43.82409" lon="2.97837">
        <ele>641.42</ele>
        <time>2023-04-04T10:47:42.416Z</time>
      </trkpt>
      <trkpt lat="43.82398" lon="2.97829">
        <ele>642.43</ele>
        <time>2023-04-04T10:47:52.866Z</time>
      </trkpt>
      <trkpt lat="43.82385" lon="2.97824">
        <ele>641.43</ele>
        <time>2023-04-04T10:48:03.317Z</time>
      </trkpt>
      <trkpt lat="43.82376" lon="2.97819">
        <ele>641.43</ele>
        <time>2023-04-04T10:48:13.666Z</time>
      </trkpt>
      <trkpt lat="43.82368" lon="2.97816">
        <ele>639.45</ele>
        <time>2023-04-04T10:48:23.976Z</time>
      </trkpt>
      <trkpt lat="43.82359" lon="2.97811">
        <ele>638.68</ele>
        <time>2023-04-04T10:48:34.287Z</time>
      </trkpt>
      <trkpt lat="43.8235" lon="2.97804">
        <ele>636.43</ele>
        <time>2023-04-04T10:48:44.717Z</time>
      </trkpt>
      <trkpt lat="43.82336" lon="2.97793">
        <ele>635.43</ele>
        <time>2023-04-04T10:48:54.988Z</time>
      </trkpt>
      <trkpt lat="43.82326" lon="2.97778">
        <ele>637.43</ele>
        <time>2023-04-04T10:49:05.347Z</time>
      </trkpt>
      <trkpt lat="43.82324" lon="2.9776">
        <ele>637.43</ele>
        <time>2023-04-04T10:49:15.807Z</time>
      </trkpt>
      <trkpt lat="43.82327" lon="2.97746">
        <ele>636.43</ele>
        <time>2023-04-04T10:49:26.287Z</time>
      </trkpt>
      <trkpt lat="43.82329" lon="2.9773">
        <ele>630.7</ele>
        <time>2023-04-04T10:49:36.737Z</time>
      </trkpt>
      <trkpt lat="43.82331" lon="2.97713">
        <ele>625.43</ele>
        <time>2023-04-04T10:49:47.077Z</time>
      </trkpt>
      <trkpt lat="43.82332" lon="2.97696">
        <ele>622.68</ele>
        <time>2023-04-04T10:49:57.337Z</time>
      </trkpt>
      <trkpt lat="43.8233" lon="2.97679">
        <ele>621.44</ele>
        <time>2023-04-04T10:50:07.736Z</time>
      </trkpt>
      <trkpt lat="43.82328" lon="2.97663">
        <ele>619.44</ele>
        <time>2023-04-04T10:50:18.117Z</time>
      </trkpt>
      <trkpt lat="43.82323" lon="2.97648">
        <ele>619.43</ele>
        <time>2023-04-04T10:50:28.417Z</time>
      </trkpt>
      <trkpt lat="43.82319" lon="2.97631">
        <ele>618.43</ele>
        <time>2023-04-04T10:50:39.444Z</time>
      </trkpt>
      <trkpt lat="43.82314" lon="2.97615">
        <ele>616.68</ele>
        <time>2023-04-04T10:50:49.956Z</time>
      </trkpt>
      <trkpt lat="43.82308" lon="2.97599">
        <ele>614.45</ele>
        <time>2023-04-04T10:51:00.417Z</time>
      </trkpt>
      <trkpt lat="43.82304" lon="2.97584">
        <ele>613.43</ele>
        <time>2023-04-04T10:51:10.866Z</time>
      </trkpt>
      <trkpt lat="43.82298" lon="2.97569">
        <ele>611.43</ele>
        <time>2023-04-04T10:51:21.168Z</time>
      </trkpt>
      <trkpt lat="43.82294" lon="2.97554">
        <ele>610.43</ele>
        <time>2023-04-04T10:51:31.637Z</time>
      </trkpt>
      <trkpt lat="43.82287" lon="2.97539">
        <ele>608.43</ele>
        <time>2023-04-04T10:51:42.027Z</time>
      </trkpt>
      <trkpt lat="43.82277" lon="2.9753">
        <ele>606.43</ele>
        <time>2023-04-04T10:51:52.316Z</time>
      </trkpt>
      <trkpt lat="43.82266" lon="2.97523">
        <ele>605.68</ele>
        <time>2023-04-04T10:52:02.694Z</time>
      </trkpt>
      <trkpt lat="43.8226" lon="2.97517">
        <ele>605.43</ele>
        <time>2023-04-04T10:52:13.470Z</time>
      </trkpt>
      <trkpt lat="43.82252" lon="2.97514">
        <ele>604.44</ele>
        <time>2023-04-04T10:52:23.837Z</time>
      </trkpt>
      <trkpt lat="43.82242" lon="2.9751">
        <ele>603.48</ele>
        <time>2023-04-04T10:52:34.647Z</time>
      </trkpt>
      <trkpt lat="43.82244" lon="2.9751">
        <ele>603.43</ele>
        <time>2023-04-04T10:52:45.567Z</time>
      </trkpt>
      <trkpt lat="43.8224" lon="2.97509">
        <ele>603.43</ele>
        <time>2023-04-04T10:52:55.826Z</time>
      </trkpt>
      <trkpt lat="43.82227" lon="2.97505">
        <ele>602.44</ele>
        <time>2023-04-04T10:53:06.208Z</time>
      </trkpt>
      <trkpt lat="43.82216" lon="2.97497">
        <ele>601.43</ele>
        <time>2023-04-04T10:53:16.444Z</time>
      </trkpt>
      <trkpt lat="43.82211" lon="2.97479">
        <ele>603.42</ele>
        <time>2023-04-04T10:53:26.777Z</time>
      </trkpt>
      <trkpt lat="43.82208" lon="2.97462">
        <ele>603.49</ele>
        <time>2023-04-04T10:53:37.023Z</time>
      </trkpt>
      <trkpt lat="43.82202" lon="2.97447">
        <ele>604.44</ele>
        <time>2023-04-04T10:53:47.368Z</time>
      </trkpt>
      <trkpt lat="43.82198" lon="2.97431">
        <ele>604.44</ele>
        <time>2023-04-04T10:53:57.896Z</time>
      </trkpt>
      <trkpt lat="43.82193" lon="2.97415">
        <ele>604.44</ele>
        <time>2023-04-04T10:54:08.307Z</time>
      </trkpt>
      <trkpt lat="43.8219" lon="2.974">
        <ele>604.44</ele>
        <time>2023-04-04T10:54:18.698Z</time>
      </trkpt>
      <trkpt lat="43.82184" lon="2.97382">
        <ele>605.44</ele>
        <time>2023-04-04T10:54:29.196Z</time>
      </trkpt>
      <trkpt lat="43.82179" lon="2.97369">
        <ele>606.44</ele>
        <time>2023-04-04T10:54:39.636Z</time>
      </trkpt>
      <trkpt lat="43.82172" lon="2.97356">
        <ele>606.44</ele>
        <time>2023-04-04T10:54:50.026Z</time>
      </trkpt>
      <trkpt lat="43.82165" lon="2.97344">
        <ele>606.44</ele>
        <time>2023-04-04T10:55:00.468Z</time>
      </trkpt>
      <trkpt lat="43.82157" lon="2.97331">
        <ele>607.44</ele>
        <time>2023-04-04T10:55:10.944Z</time>
      </trkpt>
      <trkpt lat="43.82148" lon="2.9732">
        <ele>605.5</ele>
        <time>2023-04-04T10:55:21.227Z</time>
      </trkpt>
      <trkpt lat="43.82139" lon="2.97314">
        <ele>604.44</ele>
        <time>2023-04-04T10:55:31.583Z</time>
      </trkpt>
      <trkpt lat="43.82129" lon="2.9731">
        <ele>603.44</ele>
        <time>2023-04-04T10:55:41.883Z</time>
      </trkpt>
      <trkpt lat="43.82122" lon="2.97309">
        <ele>602.44</ele>
        <time>2023-04-04T10:55:52.397Z</time>
      </trkpt>
      <trkpt lat="43.82112" lon="2.97304">
        <ele>603.44</ele>
        <time>2023-04-04T10:56:02.736Z</time>
      </trkpt>
      <trkpt lat="43.821" lon="2.97301">
        <ele>604.38</ele>
        <time>2023-04-04T10:56:13.177Z</time>
      </trkpt>
      <trkpt lat="43.82092" lon="2.97298">
        <ele>607.44</ele>
        <time>2023-04-04T10:56:23.623Z</time>
      </trkpt>
      <trkpt lat="43.82084" lon="2.97295">
        <ele>605.44</ele>
        <time>2023-04-04T10:56:33.978Z</time>
      </trkpt>
      <trkpt lat="43.82069" lon="2.97294">
        <ele>605.44</ele>
        <time>2023-04-04T10:56:44.336Z</time>
      </trkpt>
      <trkpt lat="43.82055" lon="2.97295">
        <ele>602.44</ele>
        <time>2023-04-04T10:56:54.796Z</time>
      </trkpt>
      <trkpt lat="43.82041" lon="2.97302">
        <ele>598.5</ele>
        <time>2023-04-04T10:57:05.257Z</time>
      </trkpt>
      <trkpt lat="43.82031" lon="2.97311">
        <ele>597.44</ele>
        <time>2023-04-04T10:57:15.548Z</time>
      </trkpt>
      <trkpt lat="43.82023" lon="2.97319">
        <ele>591.69</ele>
        <time>2023-04-04T10:57:25.926Z</time>
      </trkpt>
      <trkpt lat="43.82024" lon="2.97307">
        <ele>588.69</ele>
        <time>2023-04-04T10:57:36.277Z</time>
      </trkpt>
      <trkpt lat="43.82031" lon="2.97299">
        <ele>586.44</ele>
        <time>2023-04-04T10:57:46.708Z</time>
      </trkpt>
      <trkpt lat="43.82038" lon="2.97293">
        <ele>587.42</ele>
        <time>2023-04-04T10:57:57.147Z</time>
      </trkpt>
      <trkpt lat="43.82046" lon="2.97287">
        <ele>589.44</ele>
        <time>2023-04-04T10:58:07.616Z</time>
      </trkpt>
      <trkpt lat="43.82056" lon="2.97282">
        <ele>589.19</ele>
        <time>2023-04-04T10:58:17.987Z</time>
      </trkpt>
      <trkpt lat="43.82064" lon="2.97278">
        <ele>589.44</ele>
        <time>2023-04-04T10:58:28.428Z</time>
      </trkpt>
      <trkpt lat="43.82073" lon="2.97273">
        <ele>593.17</ele>
        <time>2023-04-04T10:58:38.926Z</time>
      </trkpt>
      <trkpt lat="43.82081" lon="2.9727">
        <ele>593.44</ele>
        <time>2023-04-04T10:58:49.264Z</time>
      </trkpt>
      <trkpt lat="43.82089" lon="2.97268">
        <ele>595.25</ele>
        <time>2023-04-04T10:58:59.727Z</time>
      </trkpt>
      <trkpt lat="43.82105" lon="2.97263">
        <ele>593.44</ele>
        <time>2023-04-04T10:59:10.176Z</time>
      </trkpt>
      <trkpt lat="43.82117" lon="2.97256">
        <ele>589.44</ele>
        <time>2023-04-04T10:59:20.578Z</time>
      </trkpt>
      <trkpt lat="43.82127" lon="2.97251">
        <ele>584.7</ele>
        <time>2023-04-04T10:59:30.916Z</time>
      </trkpt>
      <trkpt lat="43.82138" lon="2.97249">
        <ele>582.44</ele>
        <time>2023-04-04T10:59:41.327Z</time>
      </trkpt>
      <trkpt lat="43.82148" lon="2.9725">
        <ele>580.44</ele>
        <time>2023-04-04T10:59:51.584Z</time>
      </trkpt>
      <trkpt lat="43.82159" lon="2.97254">
        <ele>577.44</ele>
        <time>2023-04-04T11:00:02.064Z</time>
      </trkpt>
      <trkpt lat="43.82169" lon="2.97259">
        <ele>576.44</ele>
        <time>2023-04-04T11:00:12.497Z</time>
      </trkpt>
      <trkpt lat="43.82176" lon="2.97265">
        <ele>575.44</ele>
        <time>2023-04-04T11:00:22.609Z</time>
      </trkpt>
      <trkpt lat="43.82185" lon="2.97273">
        <ele>574.44</ele>
        <time>2023-04-04T11:00:32.928Z</time>
      </trkpt>
      <trkpt lat="43.82194" lon="2.97275">
        <ele>573.44</ele>
        <time>2023-04-04T11:00:43.369Z</time>
      </trkpt>
      <trkpt lat="43.82196" lon="2.97273">
        <ele>573.43</ele>
        <time>2023-04-04T11:00:53.458Z</time>
      </trkpt>
      <trkpt lat="43.82195" lon="2.97273">
        <ele>574.44</ele>
        <time>2023-04-04T11:01:11.697Z</time>
      </trkpt>
      <trkpt lat="43.82194" lon="2.97273">
        <ele>573.44</ele>
        <time>2023-04-04T11:01:55.706Z</time>
      </trkpt>
      <trkpt lat="43.82197" lon="2.97275">
        <ele>575.37</ele>
        <time>2023-04-04T11:02:06.139Z</time>
      </trkpt>
      <trkpt lat="43.82205" lon="2.97281">
        <ele>576.19</ele>
        <time>2023-04-04T11:02:16.639Z</time>
      </trkpt>
      <trkpt lat="43.8221" lon="2.97291">
        <ele>574.44</ele>
        <time>2023-04-04T11:02:27.139Z</time>
      </trkpt>
      <trkpt lat="43.82218" lon="2.973">
        <ele>574.69</ele>
        <time>2023-04-04T11:02:37.628Z</time>
      </trkpt>
      <trkpt lat="43.82226" lon="2.97312">
        <ele>574.44</ele>
        <time>2023-04-04T11:02:48.028Z</time>
      </trkpt>
      <trkpt lat="43.82232" lon="2.97324">
        <ele>574.44</ele>
        <time>2023-04-04T11:02:58.379Z</time>
      </trkpt>
      <trkpt lat="43.8224" lon="2.97332">
        <ele>572.5</ele>
        <time>2023-04-04T11:03:08.519Z</time>
      </trkpt>
      <trkpt lat="43.82245" lon="2.97347">
        <ele>571.39</ele>
        <time>2023-04-04T11:03:19.009Z</time>
      </trkpt>
      <trkpt lat="43.82249" lon="2.9736">
        <ele>570.44</ele>
        <time>2023-04-04T11:03:29.354Z</time>
      </trkpt>
      <trkpt lat="43.82251" lon="2.97376">
        <ele>569.44</ele>
        <time>2023-04-04T11:03:39.688Z</time>
      </trkpt>
      <trkpt lat="43.82251" lon="2.97389">
        <ele>567.44</ele>
        <time>2023-04-04T11:03:50.208Z</time>
      </trkpt>
      <trkpt lat="43.82254" lon="2.97402">
        <ele>565.44</ele>
        <time>2023-04-04T11:04:00.691Z</time>
      </trkpt>
      <trkpt lat="43.8226" lon="2.97413">
        <ele>566.19</ele>
        <time>2023-04-04T11:04:10.909Z</time>
      </trkpt>
      <trkpt lat="43.82272" lon="2.97415">
        <ele>566.43</ele>
        <time>2023-04-04T11:04:20.909Z</time>
      </trkpt>
      <trkpt lat="43.82284" lon="2.97413">
        <ele>567.43</ele>
        <time>2023-04-04T11:04:31.288Z</time>
      </trkpt>
      <trkpt lat="43.82297" lon="2.97415">
        <ele>566.43</ele>
        <time>2023-04-04T11:04:41.700Z</time>
      </trkpt>
      <trkpt lat="43.82308" lon="2.97418">
        <ele>565.43</ele>
        <time>2023-04-04T11:04:51.709Z</time>
      </trkpt>
      <trkpt lat="43.82317" lon="2.97425">
        <ele>563.5</ele>
        <time>2023-04-04T11:05:01.779Z</time>
      </trkpt>
      <trkpt lat="43.82327" lon="2.97434">
        <ele>562.43</ele>
        <time>2023-04-04T11:05:12.289Z</time>
      </trkpt>
      <trkpt lat="43.82335" lon="2.97443">
        <ele>563.43</ele>
        <time>2023-04-04T11:05:22.691Z</time>
      </trkpt>
      <trkpt lat="43.82344" lon="2.97454">
        <ele>562.49</ele>
        <time>2023-04-04T11:05:33.219Z</time>
      </trkpt>
      <trkpt lat="43.8235" lon="2.97465">
        <ele>561.43</ele>
        <time>2023-04-04T11:05:43.717Z</time>
      </trkpt>
      <trkpt lat="43.82359" lon="2.97477">
        <ele>560.43</ele>
        <time>2023-04-04T11:05:54.189Z</time>
      </trkpt>
      <trkpt lat="43.82366" lon="2.97489">
        <ele>558.43</ele>
        <time>2023-04-04T11:06:04.659Z</time>
      </trkpt>
      <trkpt lat="43.82374" lon="2.97501">
        <ele>558.43</ele>
        <time>2023-04-04T11:06:15.169Z</time>
      </trkpt>
      <trkpt lat="43.82383" lon="2.97509">
        <ele>558.43</ele>
        <time>2023-04-04T11:06:25.688Z</time>
      </trkpt>
      <trkpt lat="43.82393" lon="2.97517">
        <ele>557.42</ele>
        <time>2023-04-04T11:06:36.259Z</time>
      </trkpt>
      <trkpt lat="43.82401" lon="2.97525">
        <ele>556.43</ele>
        <time>2023-04-04T11:06:46.628Z</time>
      </trkpt>
      <trkpt lat="43.82405" lon="2.97532">
        <ele>555.43</ele>
        <time>2023-04-04T11:06:57.029Z</time>
      </trkpt>
      <trkpt lat="43.82411" lon="2.9754">
        <ele>555.43</ele>
        <time>2023-04-04T11:07:07.449Z</time>
      </trkpt>
      <trkpt lat="43.82419" lon="2.97551">
        <ele>554.43</ele>
        <time>2023-04-04T11:07:17.692Z</time>
      </trkpt>
      <trkpt lat="43.82427" lon="2.97563">
        <ele>551.43</ele>
        <time>2023-04-04T11:07:27.711Z</time>
      </trkpt>
      <trkpt lat="43.82436" lon="2.97575">
        <ele>552.18</ele>
        <time>2023-04-04T11:07:38.709Z</time>
      </trkpt>
      <trkpt lat="43.82444" lon="2.9759">
        <ele>553.66</ele>
        <time>2023-04-04T11:07:49.702Z</time>
      </trkpt>
      <trkpt lat="43.82454" lon="2.97602">
        <ele>554.43</ele>
        <time>2023-04-04T11:08:00.704Z</time>
      </trkpt>
      <trkpt lat="43.82465" lon="2.97603">
        <ele>556.37</ele>
        <time>2023-04-04T11:08:10.704Z</time>
      </trkpt>
      <trkpt lat="43.82475" lon="2.97595">
        <ele>556.43</ele>
        <time>2023-04-04T11:08:20.704Z</time>
      </trkpt>
      <trkpt lat="43.82477" lon="2.97583">
        <ele>555.43</ele>
        <time>2023-04-04T11:08:30.706Z</time>
      </trkpt>
      <trkpt lat="43.82475" lon="2.97569">
        <ele>555.43</ele>
        <time>2023-04-04T11:08:41.677Z</time>
      </trkpt>
      <trkpt lat="43.82471" lon="2.97553">
        <ele>554.49</ele>
        <time>2023-04-04T11:08:51.694Z</time>
      </trkpt>
      <trkpt lat="43.8247" lon="2.97538">
        <ele>554.49</ele>
        <time>2023-04-04T11:09:01.695Z</time>
      </trkpt>
      <trkpt lat="43.82471" lon="2.97521">
        <ele>554.68</ele>
        <time>2023-04-04T11:09:11.702Z</time>
      </trkpt>
      <trkpt lat="43.82472" lon="2.97508">
        <ele>552.49</ele>
        <time>2023-04-04T11:09:21.708Z</time>
      </trkpt>
      <trkpt lat="43.82474" lon="2.97492">
        <ele>551.43</ele>
        <time>2023-04-04T11:09:32.695Z</time>
      </trkpt>
      <trkpt lat="43.82476" lon="2.97477">
        <ele>550.45</ele>
        <time>2023-04-04T11:09:42.704Z</time>
      </trkpt>
      <trkpt lat="43.82478" lon="2.97459">
        <ele>547.45</ele>
        <time>2023-04-04T11:09:53.701Z</time>
      </trkpt>
      <trkpt lat="43.82479" lon="2.97443">
        <ele>545.43</ele>
        <time>2023-04-04T11:10:03.702Z</time>
      </trkpt>
      <trkpt lat="43.82481" lon="2.97424">
        <ele>544.43</ele>
        <time>2023-04-04T11:10:13.707Z</time>
      </trkpt>
      <trkpt lat="43.82485" lon="2.97406">
        <ele>544.49</ele>
        <time>2023-04-04T11:10:24.693Z</time>
      </trkpt>
      <trkpt lat="43.82489" lon="2.9739">
        <ele>541.68</ele>
        <time>2023-04-04T11:10:34.701Z</time>
      </trkpt>
      <trkpt lat="43.82489" lon="2.97376">
        <ele>542.18</ele>
        <time>2023-04-04T11:10:44.702Z</time>
      </trkpt>
      <trkpt lat="43.82484" lon="2.9736">
        <ele>540.43</ele>
        <time>2023-04-04T11:10:55.695Z</time>
      </trkpt>
      <trkpt lat="43.82476" lon="2.97345">
        <ele>538.49</ele>
        <time>2023-04-04T11:11:06.694Z</time>
      </trkpt>
      <trkpt lat="43.82469" lon="2.97332">
        <ele>539.43</ele>
        <time>2023-04-04T11:11:17.698Z</time>
      </trkpt>
      <trkpt lat="43.82462" lon="2.97321">
        <ele>541.18</ele>
        <time>2023-04-04T11:11:27.700Z</time>
      </trkpt>
      <trkpt lat="43.82454" lon="2.97308">
        <ele>541.43</ele>
        <time>2023-04-04T11:11:37.704Z</time>
      </trkpt>
      <trkpt lat="43.82446" lon="2.97296">
        <ele>540.18</ele>
        <time>2023-04-04T11:11:48.697Z</time>
      </trkpt>
      <trkpt lat="43.8244" lon="2.97284">
        <ele>538.49</ele>
        <time>2023-04-04T11:11:58.706Z</time>
      </trkpt>
      <trkpt lat="43.82434" lon="2.97269">
        <ele>538.19</ele>
        <time>2023-04-04T11:12:09.701Z</time>
      </trkpt>
      <trkpt lat="43.82429" lon="2.97253">
        <ele>537.49</ele>
        <time>2023-04-04T11:12:19.703Z</time>
      </trkpt>
      <trkpt lat="43.82423" lon="2.97239">
        <ele>538.43</ele>
        <time>2023-04-04T11:12:29.711Z</time>
      </trkpt>
      <trkpt lat="43.82418" lon="2.97222">
        <ele>539.18</ele>
        <time>2023-04-04T11:12:40.693Z</time>
      </trkpt>
      <trkpt lat="43.82416" lon="2.97206">
        <ele>538.43</ele>
        <time>2023-04-04T11:12:50.700Z</time>
      </trkpt>
      <trkpt lat="43.82411" lon="2.97187">
        <ele>536.48</ele>
        <time>2023-04-04T11:13:01.694Z</time>
      </trkpt>
      <trkpt lat="43.82406" lon="2.97172">
        <ele>535.42</ele>
        <time>2023-04-04T11:13:11.696Z</time>
      </trkpt>
      <trkpt lat="43.82402" lon="2.97158">
        <ele>535.37</ele>
        <time>2023-04-04T11:13:21.698Z</time>
      </trkpt>
      <trkpt lat="43.82397" lon="2.97145">
        <ele>535.48</ele>
        <time>2023-04-04T11:13:32.703Z</time>
      </trkpt>
      <trkpt lat="43.82397" lon="2.97127">
        <ele>534.24</ele>
        <time>2023-04-04T11:13:42.706Z</time>
      </trkpt>
      <trkpt lat="43.824" lon="2.9711">
        <ele>531.68</ele>
        <time>2023-04-04T11:13:53.698Z</time>
      </trkpt>
      <trkpt lat="43.82405" lon="2.97095">
        <ele>530.44</ele>
        <time>2023-04-04T11:14:03.703Z</time>
      </trkpt>
      <trkpt lat="43.8241" lon="2.97087">
        <ele>529.44</ele>
        <time>2023-04-04T11:14:13.704Z</time>
      </trkpt>
      <trkpt lat="43.82419" lon="2.97078">
        <ele>528.25</ele>
        <time>2023-04-04T11:14:24.701Z</time>
      </trkpt>
      <trkpt lat="43.82429" lon="2.97073">
        <ele>530.4</ele>
        <time>2023-04-04T11:14:35.698Z</time>
      </trkpt>
      <trkpt lat="43.82437" lon="2.97073">
        <ele>529.25</ele>
        <time>2023-04-04T11:14:46.701Z</time>
      </trkpt>
      <trkpt lat="43.82449" lon="2.97071">
        <ele>528.43</ele>
        <time>2023-04-04T11:14:56.709Z</time>
      </trkpt>
      <trkpt lat="43.8246" lon="2.97072">
        <ele>527.37</ele>
        <time>2023-04-04T11:15:07.697Z</time>
      </trkpt>
      <trkpt lat="43.8247" lon="2.97073">
        <ele>525.43</ele>
        <time>2023-04-04T11:15:18.699Z</time>
      </trkpt>
      <trkpt lat="43.82479" lon="2.97075">
        <ele>526.37</ele>
        <time>2023-04-04T11:15:28.704Z</time>
      </trkpt>
      <trkpt lat="43.82489" lon="2.97079">
        <ele>528.43</ele>
        <time>2023-04-04T11:15:39.691Z</time>
      </trkpt>
      <trkpt lat="43.825" lon="2.97077">
        <ele>528.18</ele>
        <time>2023-04-04T11:15:49.695Z</time>
      </trkpt>
      <trkpt lat="43.82501" lon="2.97065">
        <ele>528.43</ele>
        <time>2023-04-04T11:15:59.900Z</time>
      </trkpt>
      <trkpt lat="43.82499" lon="2.9705">
        <ele>524.43</ele>
        <time>2023-04-04T11:16:10.301Z</time>
      </trkpt>
      <trkpt lat="43.82495" lon="2.97036">
        <ele>522.37</ele>
        <time>2023-04-04T11:16:20.709Z</time>
      </trkpt>
      <trkpt lat="43.82494" lon="2.97037">
        <ele>523.43</ele>
        <time>2023-04-04T11:16:30.718Z</time>
      </trkpt>
      <trkpt lat="43.82492" lon="2.97036">
        <ele>522.43</ele>
        <time>2023-04-04T11:16:41.219Z</time>
      </trkpt>
      <trkpt lat="43.82492" lon="2.97034">
        <ele>523.43</ele>
        <time>2023-04-04T11:16:51.669Z</time>
      </trkpt>
      <trkpt lat="43.82489" lon="2.97022">
        <ele>522.43</ele>
        <time>2023-04-04T11:17:02.610Z</time>
      </trkpt>
      <trkpt lat="43.82488" lon="2.97021">
        <ele>522.43</ele>
        <time>2023-04-04T11:17:13.620Z</time>
      </trkpt>
      <trkpt lat="43.82482" lon="2.9701">
        <ele>518.43</ele>
        <time>2023-04-04T11:17:24.049Z</time>
      </trkpt>
      <trkpt lat="43.82477" lon="2.97001">
        <ele>520.43</ele>
        <time>2023-04-04T11:17:34.310Z</time>
      </trkpt>
      <trkpt lat="43.82471" lon="2.96992">
        <ele>521.43</ele>
        <time>2023-04-04T11:17:44.848Z</time>
      </trkpt>
      <trkpt lat="43.82467" lon="2.9699">
        <ele>519.56</ele>
        <time>2023-04-04T11:17:55.259Z</time>
      </trkpt>
      <trkpt lat="43.82463" lon="2.96992">
        <ele>520.43</ele>
        <time>2023-04-04T11:18:05.640Z</time>
      </trkpt>
      <trkpt lat="43.82462" lon="2.96991">
        <ele>520.19</ele>
        <time>2023-04-04T11:18:19.959Z</time>
      </trkpt>
      <trkpt lat="43.82458" lon="2.9699">
        <ele>521.43</ele>
        <time>2023-04-04T11:18:30.440Z</time>
      </trkpt>
      <trkpt lat="43.82452" lon="2.96987">
        <ele>522.43</ele>
        <time>2023-04-04T11:18:40.909Z</time>
      </trkpt>
      <trkpt lat="43.82446" lon="2.96983">
        <ele>523.43</ele>
        <time>2023-04-04T11:18:51.409Z</time>
      </trkpt>
      <trkpt lat="43.82439" lon="2.9698">
        <ele>523.68</ele>
        <time>2023-04-04T11:19:01.939Z</time>
      </trkpt>
      <trkpt lat="43.8243" lon="2.96979">
        <ele>524.43</ele>
        <time>2023-04-04T11:19:12.279Z</time>
      </trkpt>
      <trkpt lat="43.82423" lon="2.96978">
        <ele>526.43</ele>
        <time>2023-04-04T11:19:22.690Z</time>
      </trkpt>
      <trkpt lat="43.82412" lon="2.96977">
        <ele>526.43</ele>
        <time>2023-04-04T11:19:33.707Z</time>
      </trkpt>
      <trkpt lat="43.82406" lon="2.96972">
        <ele>526.37</ele>
        <time>2023-04-04T11:19:44.130Z</time>
      </trkpt>
      <trkpt lat="43.824" lon="2.96969">
        <ele>527.42</ele>
        <time>2023-04-04T11:19:54.700Z</time>
      </trkpt>
      <trkpt lat="43.82391" lon="2.96971">
        <ele>528.44</ele>
        <time>2023-04-04T11:20:04.809Z</time>
      </trkpt>
      <trkpt lat="43.82383" lon="2.96968">
        <ele>525.68</ele>
        <time>2023-04-04T11:20:15.059Z</time>
      </trkpt>
      <trkpt lat="43.82375" lon="2.96967">
        <ele>525.44</ele>
        <time>2023-04-04T11:20:25.569Z</time>
      </trkpt>
      <trkpt lat="43.82366" lon="2.96965">
        <ele>524.44</ele>
        <time>2023-04-04T11:20:35.950Z</time>
      </trkpt>
      <trkpt lat="43.82359" lon="2.96963">
        <ele>529.19</ele>
        <time>2023-04-04T11:20:46.369Z</time>
      </trkpt>
      <trkpt lat="43.82348" lon="2.96962">
        <ele>530.43</ele>
        <time>2023-04-04T11:20:56.900Z</time>
      </trkpt>
      <trkpt lat="43.8234" lon="2.96963">
        <ele>530.44</ele>
        <time>2023-04-04T11:21:07.319Z</time>
      </trkpt>
      <trkpt lat="43.8233" lon="2.96961">
        <ele>529.44</ele>
        <time>2023-04-04T11:21:17.788Z</time>
      </trkpt>
      <trkpt lat="43.82321" lon="2.96957">
        <ele>530.44</ele>
        <time>2023-04-04T11:21:28.260Z</time>
      </trkpt>
      <trkpt lat="43.82315" lon="2.96957">
        <ele>528.5</ele>
        <time>2023-04-04T11:21:38.709Z</time>
      </trkpt>
      <trkpt lat="43.82316" lon="2.96958">
        <ele>527.44</ele>
        <time>2023-04-04T11:21:49.209Z</time>
      </trkpt>
      <trkpt lat="43.82315" lon="2.96956">
        <ele>528.42</ele>
        <time>2023-04-04T11:22:02.698Z</time>
      </trkpt>
      <trkpt lat="43.82311" lon="2.96947">
        <ele>530.19</ele>
        <time>2023-04-04T11:22:13.479Z</time>
      </trkpt>
      <trkpt lat="43.82306" lon="2.9694">
        <ele>532.2</ele>
        <time>2023-04-04T11:22:24.001Z</time>
      </trkpt>
      <trkpt lat="43.82304" lon="2.96938">
        <ele>532.44</ele>
        <time>2023-04-04T11:22:34.648Z</time>
      </trkpt>
      <trkpt lat="43.82303" lon="2.96936">
        <ele>532.5</ele>
        <time>2023-04-04T11:22:44.697Z</time>
      </trkpt>
      <trkpt lat="43.82302" lon="2.9693">
        <ele>533.43</ele>
        <time>2023-04-04T11:22:54.989Z</time>
      </trkpt>
      <trkpt lat="43.82296" lon="2.96922">
        <ele>531.44</ele>
        <time>2023-04-04T11:23:05.530Z</time>
      </trkpt>
      <trkpt lat="43.82289" lon="2.96922">
        <ele>532.43</ele>
        <time>2023-04-04T11:23:15.599Z</time>
      </trkpt>
      <trkpt lat="43.82282" lon="2.96925">
        <ele>531.44</ele>
        <time>2023-04-04T11:23:26.383Z</time>
      </trkpt>
      <trkpt lat="43.82276" lon="2.96929">
        <ele>531.19</ele>
        <time>2023-04-04T11:23:36.684Z</time>
      </trkpt>
      <trkpt lat="43.82275" lon="2.96931">
        <ele>532.42</ele>
        <time>2023-04-04T11:23:54.349Z</time>
      </trkpt>
      <trkpt lat="43.82271" lon="2.96941">
        <ele>531.44</ele>
        <time>2023-04-04T11:24:04.868Z</time>
      </trkpt>
      <trkpt lat="43.82276" lon="2.96949">
        <ele>532.67</ele>
        <time>2023-04-04T11:24:15.349Z</time>
      </trkpt>
      <trkpt lat="43.82283" lon="2.96955">
        <ele>533.44</ele>
        <time>2023-04-04T11:24:25.359Z</time>
      </trkpt>
      <trkpt lat="43.82291" lon="2.96957">
        <ele>532.44</ele>
        <time>2023-04-04T11:24:35.639Z</time>
      </trkpt>
      <trkpt lat="43.82293" lon="2.96958">
        <ele>529.44</ele>
        <time>2023-04-04T11:24:45.660Z</time>
      </trkpt>
      <trkpt lat="43.82294" lon="2.96958">
        <ele>530.43</ele>
        <time>2023-04-04T11:25:02.604Z</time>
      </trkpt>
      <trkpt lat="43.82298" lon="2.96953">
        <ele>531.44</ele>
        <time>2023-04-04T11:25:12.963Z</time>
      </trkpt>
      <trkpt lat="43.823" lon="2.96948">
        <ele>532.44</ele>
        <time>2023-04-04T11:25:23.609Z</time>
      </trkpt>
      <trkpt lat="43.823" lon="2.96947">
        <ele>531.43</ele>
        <time>2023-04-04T11:25:35.720Z</time>
      </trkpt>
      <trkpt lat="43.82301" lon="2.96948">
        <ele>532.18</ele>
        <time>2023-04-04T11:25:53.702Z</time>
      </trkpt>
      <trkpt lat="43.82297" lon="2.9695">
        <ele>533.44</ele>
        <time>2023-04-04T11:26:04.129Z</time>
      </trkpt>
      <trkpt lat="43.82297" lon="2.96947">
        <ele>534.44</ele>
        <time>2023-04-04T11:26:14.639Z</time>
      </trkpt>
      <trkpt lat="43.82298" lon="2.96945">
        <ele>534.44</ele>
        <time>2023-04-04T11:27:37.687Z</time>
      </trkpt>
      <trkpt lat="43.82299" lon="2.96944">
        <ele>534.44</ele>
        <time>2023-04-04T11:27:47.700Z</time>
      </trkpt>
      <trkpt lat="43.823" lon="2.96943">
        <ele>534.44</ele>
        <time>2023-04-04T11:27:59.713Z</time>
      </trkpt>
      <trkpt lat="43.82301" lon="2.96942">
        <ele>534.44</ele>
        <time>2023-04-04T11:28:10.694Z</time>
      </trkpt>
      <trkpt lat="43.82303" lon="2.96942">
        <ele>534.42</ele>
        <time>2023-04-04T11:28:21.030Z</time>
      </trkpt>
      <trkpt lat="43.82305" lon="2.96949">
        <ele>535.5</ele>
        <time>2023-04-04T11:28:31.048Z</time>
      </trkpt>
      <trkpt lat="43.82305" lon="2.96953">
        <ele>535.44</ele>
        <time>2023-04-04T11:28:41.570Z</time>
      </trkpt>
      <trkpt lat="43.82302" lon="2.96954">
        <ele>534.44</ele>
        <time>2023-04-04T11:28:52.459Z</time>
      </trkpt>
      <trkpt lat="43.82302" lon="2.96943">
        <ele>534.44</ele>
        <time>2023-04-04T11:29:03.029Z</time>
      </trkpt>
      <trkpt lat="43.82303" lon="2.9694">
        <ele>534.44</ele>
        <time>2023-04-04T11:29:13.684Z</time>
      </trkpt>
      <trkpt lat="43.82303" lon="2.96941">
        <ele>534.48</ele>
        <time>2023-04-04T11:29:30.704Z</time>
      </trkpt>
      <trkpt lat="43.82303" lon="2.9694">
        <ele>535.37</ele>
        <time>2023-04-04T11:29:46.695Z</time>
      </trkpt>
      <trkpt lat="43.82302" lon="2.96939">
        <ele>534.45</ele>
        <time>2023-04-04T11:30:16.696Z</time>
      </trkpt>
      <trkpt lat="43.82306" lon="2.9693">
        <ele>533.44</ele>
        <time>2023-04-04T11:30:26.939Z</time>
      </trkpt>
      <trkpt lat="43.82305" lon="2.96929">
        <ele>532.44</ele>
        <time>2023-04-04T11:30:37.369Z</time>
      </trkpt>
      <trkpt lat="43.82305" lon="2.96931">
        <ele>533.44</ele>
        <time>2023-04-04T11:30:58.707Z</time>
      </trkpt>
      <trkpt lat="43.82305" lon="2.96932">
        <ele>533.44</ele>
        <time>2023-04-04T11:31:09.693Z</time>
      </trkpt>
      <trkpt lat="43.82304" lon="2.96933">
        <ele>533.44</ele>
        <time>2023-04-04T11:31:24.704Z</time>
      </trkpt>
      <trkpt lat="43.82304" lon="2.96925">
        <ele>533.44</ele>
        <time>2023-04-04T11:31:34.913Z</time>
      </trkpt>
      <trkpt lat="43.82302" lon="2.96925">
        <ele>531.44</ele>
        <time>2023-04-04T11:31:45.501Z</time>
      </trkpt>
      <trkpt lat="43.82302" lon="2.96935">
        <ele>533.69</ele>
        <time>2023-04-04T11:31:56.539Z</time>
      </trkpt>
      <trkpt lat="43.82302" lon="2.96943">
        <ele>533.44</ele>
        <time>2023-04-04T11:32:06.999Z</time>
      </trkpt>
      <trkpt lat="43.82297" lon="2.96952">
        <ele>532.46</ele>
        <time>2023-04-04T11:32:17.440Z</time>
      </trkpt>
      <trkpt lat="43.82298" lon="2.96951">
        <ele>532.44</ele>
        <time>2023-04-04T11:32:28.379Z</time>
      </trkpt>
      <trkpt lat="43.82295" lon="2.96953">
        <ele>530.44</ele>
        <time>2023-04-04T11:32:39.409Z</time>
      </trkpt>
      <trkpt lat="43.82287" lon="2.96957">
        <ele>529.44</ele>
        <time>2023-04-04T11:32:49.819Z</time>
      </trkpt>
      <trkpt lat="43.8228" lon="2.96951">
        <ele>531.44</ele>
        <time>2023-04-04T11:33:00.299Z</time>
      </trkpt>
      <trkpt lat="43.82272" lon="2.96945">
        <ele>531.42</ele>
        <time>2023-04-04T11:33:10.839Z</time>
      </trkpt>
      <trkpt lat="43.82266" lon="2.96934">
        <ele>529.44</ele>
        <time>2023-04-04T11:33:21.378Z</time>
      </trkpt>
      <trkpt lat="43.82263" lon="2.96927">
        <ele>529.42</ele>
        <time>2023-04-04T11:33:32.380Z</time>
      </trkpt>
      <trkpt lat="43.82264" lon="2.96927">
        <ele>530.44</ele>
        <time>2023-04-04T11:33:48.948Z</time>
      </trkpt>
      <trkpt lat="43.82264" lon="2.96928">
        <ele>529.69</ele>
        <time>2023-04-04T11:34:32.677Z</time>
      </trkpt>
      <trkpt lat="43.82266" lon="2.96928">
        <ele>528.19</ele>
        <time>2023-04-04T11:36:14.697Z</time>
      </trkpt>
      <trkpt lat="43.82265" lon="2.96927">
        <ele>528.69</ele>
        <time>2023-04-04T11:37:34.380Z</time>
      </trkpt>
      <trkpt lat="43.82266" lon="2.96926">
        <ele>527.44</ele>
        <time>2023-04-04T11:39:05.040Z</time>
      </trkpt>
      <trkpt lat="43.82265" lon="2.96926">
        <ele>528.38</ele>
        <time>2023-04-04T11:43:23.690Z</time>
      </trkpt>
      <trkpt lat="43.82265" lon="2.96925">
        <ele>528.44</ele>
        <time>2023-04-04T11:53:22.380Z</time>
      </trkpt>
      <trkpt lat="43.82266" lon="2.96926">
        <ele>529.44</ele>
        <time>2023-04-04T11:53:35.569Z</time>
      </trkpt>
      <trkpt lat="43.82265" lon="2.96926">
        <ele>527.44</ele>
        <time>2023-04-04T11:55:44.659Z</time>
      </trkpt>
      <trkpt lat="43.82264" lon="2.96925">
        <ele>527.44</ele>
        <time>2023-04-04T12:00:28.701Z</time>
      </trkpt>
      <trkpt lat="43.82265" lon="2.96925">
        <ele>526.45</ele>
        <time>2023-04-04T12:02:29.218Z</time>
      </trkpt>
      <trkpt lat="43.82266" lon="2.96925">
        <ele>526.43</ele>
        <time>2023-04-04T12:02:39.700Z</time>
      </trkpt>
      <trkpt lat="43.82271" lon="2.96918">
        <ele>528.19</ele>
        <time>2023-04-04T12:02:50.639Z</time>
      </trkpt>
      <trkpt lat="43.82282" lon="2.9692">
        <ele>526.45</ele>
        <time>2023-04-04T12:03:01.570Z</time>
      </trkpt>
      <trkpt lat="43.82291" lon="2.96922">
        <ele>527.44</ele>
        <time>2023-04-04T12:03:11.928Z</time>
      </trkpt>
      <trkpt lat="43.82292" lon="2.96922">
        <ele>527.44</ele>
        <time>2023-04-04T12:03:22.370Z</time>
      </trkpt>
      <trkpt lat="43.82293" lon="2.96923">
        <ele>528.37</ele>
        <time>2023-04-04T12:03:32.692Z</time>
      </trkpt>
      <trkpt lat="43.82295" lon="2.96922">
        <ele>528.19</ele>
        <time>2023-04-04T12:04:09.700Z</time>
      </trkpt>
      <trkpt lat="43.82307" lon="2.96926">
        <ele>529.42</ele>
        <time>2023-04-04T12:04:19.705Z</time>
      </trkpt>
      <trkpt lat="43.8232" lon="2.96929">
        <ele>529.44</ele>
        <time>2023-04-04T12:04:30.678Z</time>
      </trkpt>
      <trkpt lat="43.82328" lon="2.96923">
        <ele>527.45</ele>
        <time>2023-04-04T12:04:40.708Z</time>
      </trkpt>
      <trkpt lat="43.82334" lon="2.96916">
        <ele>525.7</ele>
        <time>2023-04-04T12:04:50.948Z</time>
      </trkpt>
      <trkpt lat="43.82344" lon="2.96905">
        <ele>526.37</ele>
        <time>2023-04-04T12:05:01.378Z</time>
      </trkpt>
      <trkpt lat="43.82352" lon="2.96897">
        <ele>525.44</ele>
        <time>2023-04-04T12:05:11.867Z</time>
      </trkpt>
      <trkpt lat="43.8236" lon="2.96883">
        <ele>526.67</ele>
        <time>2023-04-04T12:05:22.398Z</time>
      </trkpt>
      <trkpt lat="43.82369" lon="2.96873">
        <ele>526.69</ele>
        <time>2023-04-04T12:05:32.847Z</time>
      </trkpt>
      <trkpt lat="43.82377" lon="2.9686">
        <ele>527.44</ele>
        <time>2023-04-04T12:05:43.257Z</time>
      </trkpt>
      <trkpt lat="43.82384" lon="2.9685">
        <ele>527.44</ele>
        <time>2023-04-04T12:05:53.711Z</time>
      </trkpt>
      <trkpt lat="43.82392" lon="2.96841">
        <ele>527.44</ele>
        <time>2023-04-04T12:06:04.699Z</time>
      </trkpt>
      <trkpt lat="43.82401" lon="2.96831">
        <ele>526.44</ele>
        <time>2023-04-04T12:06:15.139Z</time>
      </trkpt>
      <trkpt lat="43.82407" lon="2.96817">
        <ele>526.43</ele>
        <time>2023-04-04T12:06:25.258Z</time>
      </trkpt>
      <trkpt lat="43.82413" lon="2.96806">
        <ele>528.44</ele>
        <time>2023-04-04T12:06:35.267Z</time>
      </trkpt>
      <trkpt lat="43.82419" lon="2.96792">
        <ele>528.44</ele>
        <time>2023-04-04T12:06:45.648Z</time>
      </trkpt>
      <trkpt lat="43.82425" lon="2.9678">
        <ele>528.5</ele>
        <time>2023-04-04T12:06:56.161Z</time>
      </trkpt>
      <trkpt lat="43.82435" lon="2.96775">
        <ele>526.44</ele>
        <time>2023-04-04T12:07:06.648Z</time>
      </trkpt>
      <trkpt lat="43.82444" lon="2.96766">
        <ele>524.5</ele>
        <time>2023-04-04T12:07:17.098Z</time>
      </trkpt>
      <trkpt lat="43.82453" lon="2.96754">
        <ele>524.44</ele>
        <time>2023-04-04T12:07:27.639Z</time>
      </trkpt>
      <trkpt lat="43.82461" lon="2.96739">
        <ele>524.43</ele>
        <time>2023-04-04T12:07:38.067Z</time>
      </trkpt>
      <trkpt lat="43.82467" lon="2.96727">
        <ele>525.18</ele>
        <time>2023-04-04T12:07:48.469Z</time>
      </trkpt>
      <trkpt lat="43.82476" lon="2.96717">
        <ele>525.18</ele>
        <time>2023-04-04T12:07:58.978Z</time>
      </trkpt>
      <trkpt lat="43.82486" lon="2.96708">
        <ele>525.43</ele>
        <time>2023-04-04T12:08:09.503Z</time>
      </trkpt>
      <trkpt lat="43.82494" lon="2.96696">
        <ele>525.43</ele>
        <time>2023-04-04T12:08:19.929Z</time>
      </trkpt>
      <trkpt lat="43.82491" lon="2.96685">
        <ele>524.43</ele>
        <time>2023-04-04T12:08:30.226Z</time>
      </trkpt>
      <trkpt lat="43.82484" lon="2.96676">
        <ele>522.69</ele>
        <time>2023-04-04T12:08:40.558Z</time>
      </trkpt>
      <trkpt lat="43.82478" lon="2.96669">
        <ele>519.5</ele>
        <time>2023-04-04T12:08:51.079Z</time>
      </trkpt>
      <trkpt lat="43.82461" lon="2.96662">
        <ele>521.37</ele>
        <time>2023-04-04T12:09:01.699Z</time>
      </trkpt>
      <trkpt lat="43.82448" lon="2.96664">
        <ele>524.42</ele>
        <time>2023-04-04T12:09:12.701Z</time>
      </trkpt>
      <trkpt lat="43.82433" lon="2.96665">
        <ele>526.42</ele>
        <time>2023-04-04T12:09:23.699Z</time>
      </trkpt>
      <trkpt lat="43.8242" lon="2.96668">
        <ele>526.44</ele>
        <time>2023-04-04T12:09:34.692Z</time>
      </trkpt>
      <trkpt lat="43.82408" lon="2.9667">
        <ele>524.64</ele>
        <time>2023-04-04T12:09:44.701Z</time>
      </trkpt>
      <trkpt lat="43.82396" lon="2.96674">
        <ele>524.44</ele>
        <time>2023-04-04T12:09:54.703Z</time>
      </trkpt>
      <trkpt lat="43.82384" lon="2.96678">
        <ele>524.44</ele>
        <time>2023-04-04T12:10:05.700Z</time>
      </trkpt>
      <trkpt lat="43.82371" lon="2.9668">
        <ele>525.44</ele>
        <time>2023-04-04T12:10:16.691Z</time>
      </trkpt>
      <trkpt lat="43.82359" lon="2.96681">
        <ele>524.45</ele>
        <time>2023-04-04T12:10:27.679Z</time>
      </trkpt>
      <trkpt lat="43.82347" lon="2.96682">
        <ele>526.44</ele>
        <time>2023-04-04T12:10:37.679Z</time>
      </trkpt>
      <trkpt lat="43.82335" lon="2.96682">
        <ele>523.45</ele>
        <time>2023-04-04T12:10:47.698Z</time>
      </trkpt>
      <trkpt lat="43.82322" lon="2.96682">
        <ele>523.44</ele>
        <time>2023-04-04T12:10:58.698Z</time>
      </trkpt>
      <trkpt lat="43.82311" lon="2.96684">
        <ele>523.44</ele>
        <time>2023-04-04T12:11:08.702Z</time>
      </trkpt>
      <trkpt lat="43.823" lon="2.96686">
        <ele>524.38</ele>
        <time>2023-04-04T12:11:18.704Z</time>
      </trkpt>
      <trkpt lat="43.82287" lon="2.96686">
        <ele>524.42</ele>
        <time>2023-04-04T12:11:29.695Z</time>
      </trkpt>
      <trkpt lat="43.82276" lon="2.96682">
        <ele>523.44</ele>
        <time>2023-04-04T12:11:39.695Z</time>
      </trkpt>
      <trkpt lat="43.82264" lon="2.96677">
        <ele>519.5</ele>
        <time>2023-04-04T12:11:49.701Z</time>
      </trkpt>
      <trkpt lat="43.82254" lon="2.96673">
        <ele>518.44</ele>
        <time>2023-04-04T12:11:59.703Z</time>
      </trkpt>
      <trkpt lat="43.82241" lon="2.96671">
        <ele>520.19</ele>
        <time>2023-04-04T12:12:10.698Z</time>
      </trkpt>
      <trkpt lat="43.8223" lon="2.96665">
        <ele>521.44</ele>
        <time>2023-04-04T12:12:21.693Z</time>
      </trkpt>
      <trkpt lat="43.82221" lon="2.96656">
        <ele>521.38</ele>
        <time>2023-04-04T12:12:31.698Z</time>
      </trkpt>
      <trkpt lat="43.8221" lon="2.96647">
        <ele>521.68</ele>
        <time>2023-04-04T12:12:42.691Z</time>
      </trkpt>
      <trkpt lat="43.82203" lon="2.96635">
        <ele>521.49</ele>
        <time>2023-04-04T12:12:52.693Z</time>
      </trkpt>
      <trkpt lat="43.822" lon="2.96626">
        <ele>521.44</ele>
        <time>2023-04-04T12:13:03.702Z</time>
      </trkpt>
      <trkpt lat="43.822" lon="2.96624">
        <ele>521.44</ele>
        <time>2023-04-04T12:13:13.705Z</time>
      </trkpt>
      <trkpt lat="43.822" lon="2.96622">
        <ele>522.44</ele>
        <time>2023-04-04T12:13:30.706Z</time>
      </trkpt>
      <trkpt lat="43.82199" lon="2.9662">
        <ele>523.44</ele>
        <time>2023-04-04T12:13:41.677Z</time>
      </trkpt>
      <trkpt lat="43.822" lon="2.96621">
        <ele>524.44</ele>
        <time>2023-04-04T12:13:58.695Z</time>
      </trkpt>
      <trkpt lat="43.82199" lon="2.96622">
        <ele>522.71</ele>
        <time>2023-04-04T12:14:09.707Z</time>
      </trkpt>
      <trkpt lat="43.822" lon="2.96623">
        <ele>523.19</ele>
        <time>2023-04-04T12:14:20.683Z</time>
      </trkpt>
      <trkpt lat="43.82197" lon="2.96616">
        <ele>522.44</ele>
        <time>2023-04-04T12:14:30.705Z</time>
      </trkpt>
      <trkpt lat="43.82195" lon="2.96617">
        <ele>522.63</ele>
        <time>2023-04-04T12:15:25.706Z</time>
      </trkpt>
      <trkpt lat="43.82196" lon="2.96618">
        <ele>522.69</ele>
        <time>2023-04-04T12:15:38.692Z</time>
      </trkpt>
      <trkpt lat="43.82197" lon="2.96619">
        <ele>522.44</ele>
        <time>2023-04-04T12:15:48.702Z</time>
      </trkpt>
      <trkpt lat="43.82198" lon="2.9662">
        <ele>522.44</ele>
        <time>2023-04-04T12:16:04.705Z</time>
      </trkpt>
      <trkpt lat="43.82198" lon="2.96621">
        <ele>522.44</ele>
        <time>2023-04-04T12:16:15.697Z</time>
      </trkpt>
      <trkpt lat="43.82198" lon="2.96623">
        <ele>523.43</ele>
        <time>2023-04-04T12:16:30.697Z</time>
      </trkpt>
      <trkpt lat="43.82198" lon="2.96625">
        <ele>524.44</ele>
        <time>2023-04-04T12:16:40.782Z</time>
      </trkpt>
      <trkpt lat="43.82198" lon="2.96623">
        <ele>523.46</ele>
        <time>2023-04-04T12:17:06.520Z</time>
      </trkpt>
      <trkpt lat="43.82196" lon="2.96605">
        <ele>524.44</ele>
        <time>2023-04-04T12:17:17.020Z</time>
      </trkpt>
      <trkpt lat="43.82191" lon="2.96592">
        <ele>525.44</ele>
        <time>2023-04-04T12:17:27.523Z</time>
      </trkpt>
      <trkpt lat="43.82189" lon="2.96579">
        <ele>526.44</ele>
        <time>2023-04-04T12:17:37.980Z</time>
      </trkpt>
      <trkpt lat="43.8219" lon="2.96566">
        <ele>528.44</ele>
        <time>2023-04-04T12:17:48.410Z</time>
      </trkpt>
      <trkpt lat="43.82193" lon="2.96553">
        <ele>530.44</ele>
        <time>2023-04-04T12:17:58.450Z</time>
      </trkpt>
      <trkpt lat="43.82197" lon="2.96535">
        <ele>529.45</ele>
        <time>2023-04-04T12:18:08.800Z</time>
      </trkpt>
      <trkpt lat="43.822" lon="2.96515">
        <ele>532.43</ele>
        <time>2023-04-04T12:18:19.072Z</time>
      </trkpt>
      <trkpt lat="43.82199" lon="2.965">
        <ele>535.44</ele>
        <time>2023-04-04T12:18:29.430Z</time>
      </trkpt>
      <trkpt lat="43.822" lon="2.96481">
        <ele>535.44</ele>
        <time>2023-04-04T12:18:39.469Z</time>
      </trkpt>
      <trkpt lat="43.82204" lon="2.96463">
        <ele>536.69</ele>
        <time>2023-04-04T12:18:49.490Z</time>
      </trkpt>
      <trkpt lat="43.82208" lon="2.96447">
        <ele>535.46</ele>
        <time>2023-04-04T12:18:59.930Z</time>
      </trkpt>
      <trkpt lat="43.82214" lon="2.96432">
        <ele>533.5</ele>
        <time>2023-04-04T12:19:10.290Z</time>
      </trkpt>
      <trkpt lat="43.82222" lon="2.96419">
        <ele>532.69</ele>
        <time>2023-04-04T12:19:20.790Z</time>
      </trkpt>
      <trkpt lat="43.82231" lon="2.96406">
        <ele>535.43</ele>
        <time>2023-04-04T12:19:31.070Z</time>
      </trkpt>
      <trkpt lat="43.82242" lon="2.96397">
        <ele>538.43</ele>
        <time>2023-04-04T12:19:41.559Z</time>
      </trkpt>
      <trkpt lat="43.8225" lon="2.96393">
        <ele>540.44</ele>
        <time>2023-04-04T12:19:51.570Z</time>
      </trkpt>
      <trkpt lat="43.82259" lon="2.96396">
        <ele>540.5</ele>
        <time>2023-04-04T12:20:01.579Z</time>
      </trkpt>
      <trkpt lat="43.82273" lon="2.96387">
        <ele>543.44</ele>
        <time>2023-04-04T12:20:11.991Z</time>
      </trkpt>
      <trkpt lat="43.82284" lon="2.96377">
        <ele>541.46</ele>
        <time>2023-04-04T12:20:22.510Z</time>
      </trkpt>
      <trkpt lat="43.82291" lon="2.96364">
        <ele>544.19</ele>
        <time>2023-04-04T12:20:32.899Z</time>
      </trkpt>
      <trkpt lat="43.82297" lon="2.96348">
        <ele>545.43</ele>
        <time>2023-04-04T12:20:43.379Z</time>
      </trkpt>
      <trkpt lat="43.82304" lon="2.96335">
        <ele>543.44</ele>
        <time>2023-04-04T12:20:53.839Z</time>
      </trkpt>
      <trkpt lat="43.8231" lon="2.9632">
        <ele>543.43</ele>
        <time>2023-04-04T12:21:03.870Z</time>
      </trkpt>
      <trkpt lat="43.82318" lon="2.96305">
        <ele>545.38</ele>
        <time>2023-04-04T12:21:14.351Z</time>
      </trkpt>
      <trkpt lat="43.82329" lon="2.96294">
        <ele>545.69</ele>
        <time>2023-04-04T12:21:24.710Z</time>
      </trkpt>
      <trkpt lat="43.82331" lon="2.96277">
        <ele>548.42</ele>
        <time>2023-04-04T12:21:35.230Z</time>
      </trkpt>
      <trkpt lat="43.82329" lon="2.9626">
        <ele>548.44</ele>
        <time>2023-04-04T12:21:45.710Z</time>
      </trkpt>
      <trkpt lat="43.82325" lon="2.96243">
        <ele>547.44</ele>
        <time>2023-04-04T12:21:56.110Z</time>
      </trkpt>
      <trkpt lat="43.82319" lon="2.96226">
        <ele>544.44</ele>
        <time>2023-04-04T12:22:06.591Z</time>
      </trkpt>
      <trkpt lat="43.82311" lon="2.96213">
        <ele>544.44</ele>
        <time>2023-04-04T12:22:17.119Z</time>
      </trkpt>
      <trkpt lat="43.82302" lon="2.96203">
        <ele>542.44</ele>
        <time>2023-04-04T12:22:27.620Z</time>
      </trkpt>
      <trkpt lat="43.82291" lon="2.96197">
        <ele>541.5</ele>
        <time>2023-04-04T12:22:38.020Z</time>
      </trkpt>
      <trkpt lat="43.82279" lon="2.96187">
        <ele>543.44</ele>
        <time>2023-04-04T12:22:48.472Z</time>
      </trkpt>
      <trkpt lat="43.82268" lon="2.96177">
        <ele>542.69</ele>
        <time>2023-04-04T12:22:58.706Z</time>
      </trkpt>
      <trkpt lat="43.82256" lon="2.96166">
        <ele>542.44</ele>
        <time>2023-04-04T12:23:09.140Z</time>
      </trkpt>
      <trkpt lat="43.82245" lon="2.96159">
        <ele>542.43</ele>
        <time>2023-04-04T12:23:19.669Z</time>
      </trkpt>
      <trkpt lat="43.82237" lon="2.96145">
        <ele>542.44</ele>
        <time>2023-04-04T12:23:30.154Z</time>
      </trkpt>
      <trkpt lat="43.82229" lon="2.96133">
        <ele>542.44</ele>
        <time>2023-04-04T12:23:40.640Z</time>
      </trkpt>
      <trkpt lat="43.82219" lon="2.9612">
        <ele>542.51</ele>
        <time>2023-04-04T12:23:50.959Z</time>
      </trkpt>
      <trkpt lat="43.82208" lon="2.9611">
        <ele>541.44</ele>
        <time>2023-04-04T12:24:01.300Z</time>
      </trkpt>
      <trkpt lat="43.82197" lon="2.961">
        <ele>542.44</ele>
        <time>2023-04-04T12:24:11.800Z</time>
      </trkpt>
      <trkpt lat="43.8219" lon="2.96085">
        <ele>544.44</ele>
        <time>2023-04-04T12:24:22.249Z</time>
      </trkpt>
      <trkpt lat="43.82184" lon="2.96069">
        <ele>544.2</ele>
        <time>2023-04-04T12:24:32.440Z</time>
      </trkpt>
      <trkpt lat="43.82178" lon="2.96055">
        <ele>543.51</ele>
        <time>2023-04-04T12:24:42.900Z</time>
      </trkpt>
      <trkpt lat="43.8217" lon="2.96041">
        <ele>544.46</ele>
        <time>2023-04-04T12:24:53.240Z</time>
      </trkpt>
      <trkpt lat="43.82164" lon="2.96028">
        <ele>544.45</ele>
        <time>2023-04-04T12:25:03.253Z</time>
      </trkpt>
      <trkpt lat="43.8216" lon="2.96012">
        <ele>545.45</ele>
        <time>2023-04-04T12:25:13.679Z</time>
      </trkpt>
      <trkpt lat="43.82153" lon="2.95997">
        <ele>545.45</ele>
        <time>2023-04-04T12:25:24.040Z</time>
      </trkpt>
      <trkpt lat="43.82149" lon="2.95981">
        <ele>546.46</ele>
        <time>2023-04-04T12:25:34.533Z</time>
      </trkpt>
      <trkpt lat="43.82144" lon="2.95966">
        <ele>546.45</ele>
        <time>2023-04-04T12:25:45.590Z</time>
      </trkpt>
      <trkpt lat="43.82141" lon="2.95952">
        <ele>547.45</ele>
        <time>2023-04-04T12:25:55.670Z</time>
      </trkpt>
      <trkpt lat="43.82135" lon="2.95935">
        <ele>548.44</ele>
        <time>2023-04-04T12:26:06.083Z</time>
      </trkpt>
      <trkpt lat="43.82128" lon="2.95917">
        <ele>549.45</ele>
        <time>2023-04-04T12:26:16.140Z</time>
      </trkpt>
      <trkpt lat="43.82119" lon="2.95905">
        <ele>547.45</ele>
        <time>2023-04-04T12:26:26.589Z</time>
      </trkpt>
      <trkpt lat="43.82109" lon="2.95893">
        <ele>545.7</ele>
        <time>2023-04-04T12:26:37.030Z</time>
      </trkpt>
      <trkpt lat="43.82098" lon="2.95881">
        <ele>548.2</ele>
        <time>2023-04-04T12:26:47.419Z</time>
      </trkpt>
      <trkpt lat="43.82086" lon="2.95872">
        <ele>549.39</ele>
        <time>2023-04-04T12:26:57.440Z</time>
      </trkpt>
      <trkpt lat="43.82079" lon="2.95862">
        <ele>548.45</ele>
        <time>2023-04-04T12:27:07.709Z</time>
      </trkpt>
      <trkpt lat="43.82073" lon="2.95848">
        <ele>546.46</ele>
        <time>2023-04-04T12:27:18.049Z</time>
      </trkpt>
      <trkpt lat="43.82065" lon="2.95834">
        <ele>547.2</ele>
        <time>2023-04-04T12:27:28.590Z</time>
      </trkpt>
      <trkpt lat="43.82061" lon="2.95818">
        <ele>548.45</ele>
        <time>2023-04-04T12:27:39.079Z</time>
      </trkpt>
      <trkpt lat="43.82055" lon="2.95807">
        <ele>547.7</ele>
        <time>2023-04-04T12:27:49.480Z</time>
      </trkpt>
      <trkpt lat="43.82048" lon="2.95793">
        <ele>548.45</ele>
        <time>2023-04-04T12:27:59.969Z</time>
      </trkpt>
      <trkpt lat="43.82042" lon="2.95778">
        <ele>549.45</ele>
        <time>2023-04-04T12:28:10.480Z</time>
      </trkpt>
      <trkpt lat="43.82038" lon="2.95765">
        <ele>550.43</ele>
        <time>2023-04-04T12:28:20.844Z</time>
      </trkpt>
      <trkpt lat="43.82041" lon="2.95755">
        <ele>551.45</ele>
        <time>2023-04-04T12:28:30.869Z</time>
      </trkpt>
      <trkpt lat="43.82052" lon="2.95749">
        <ele>556.14</ele>
        <time>2023-04-04T12:28:41.380Z</time>
      </trkpt>
      <trkpt lat="43.8206" lon="2.95747">
        <ele>558.45</ele>
        <time>2023-04-04T12:28:51.380Z</time>
      </trkpt>
      <trkpt lat="43.8207" lon="2.95748">
        <ele>558.39</ele>
        <time>2023-04-04T12:29:01.400Z</time>
      </trkpt>
      <trkpt lat="43.82072" lon="2.95749">
        <ele>557.45</ele>
        <time>2023-04-04T12:29:12.390Z</time>
      </trkpt>
      <trkpt lat="43.82073" lon="2.95751">
        <ele>557.45</ele>
        <time>2023-04-04T12:29:22.929Z</time>
      </trkpt>
      <trkpt lat="43.82083" lon="2.95744">
        <ele>561.43</ele>
        <time>2023-04-04T12:29:33.434Z</time>
      </trkpt>
      <trkpt lat="43.82093" lon="2.95741">
        <ele>560.45</ele>
        <time>2023-04-04T12:29:43.770Z</time>
      </trkpt>
      <trkpt lat="43.82103" lon="2.95739">
        <ele>561.45</ele>
        <time>2023-04-04T12:29:54.251Z</time>
      </trkpt>
      <trkpt lat="43.82112" lon="2.95738">
        <ele>563.45</ele>
        <time>2023-04-04T12:30:04.800Z</time>
      </trkpt>
      <trkpt lat="43.82123" lon="2.95734">
        <ele>560.53</ele>
        <time>2023-04-04T12:30:15.130Z</time>
      </trkpt>
      <trkpt lat="43.82139" lon="2.95733">
        <ele>558.51</ele>
        <time>2023-04-04T12:30:25.389Z</time>
      </trkpt>
      <trkpt lat="43.82154" lon="2.95723">
        <ele>560.39</ele>
        <time>2023-04-04T12:30:35.790Z</time>
      </trkpt>
      <trkpt lat="43.82166" lon="2.9572">
        <ele>561.45</ele>
        <time>2023-04-04T12:30:46.200Z</time>
      </trkpt>
      <trkpt lat="43.82178" lon="2.95724">
        <ele>560.2</ele>
        <time>2023-04-04T12:30:56.675Z</time>
      </trkpt>
      <trkpt lat="43.8219" lon="2.95736">
        <ele>555.45</ele>
        <time>2023-04-04T12:31:06.699Z</time>
      </trkpt>
      <trkpt lat="43.82202" lon="2.95744">
        <ele>554.39</ele>
        <time>2023-04-04T12:31:17.180Z</time>
      </trkpt>
      <trkpt lat="43.82211" lon="2.95748">
        <ele>554.39</ele>
        <time>2023-04-04T12:31:27.640Z</time>
      </trkpt>
      <trkpt lat="43.82222" lon="2.95753">
        <ele>552.7</ele>
        <time>2023-04-04T12:31:37.684Z</time>
      </trkpt>
      <trkpt lat="43.82233" lon="2.95759">
        <ele>555.38</ele>
        <time>2023-04-04T12:31:48.150Z</time>
      </trkpt>
      <trkpt lat="43.82244" lon="2.95765">
        <ele>555.45</ele>
        <time>2023-04-04T12:31:58.531Z</time>
      </trkpt>
      <trkpt lat="43.82254" lon="2.95772">
        <ele>555.45</ele>
        <time>2023-04-04T12:32:09.034Z</time>
      </trkpt>
      <trkpt lat="43.82263" lon="2.95779">
        <ele>553.7</ele>
        <time>2023-04-04T12:32:19.079Z</time>
      </trkpt>
      <trkpt lat="43.82272" lon="2.95789">
        <ele>550.46</ele>
        <time>2023-04-04T12:32:29.440Z</time>
      </trkpt>
      <trkpt lat="43.8228" lon="2.95803">
        <ele>546.51</ele>
        <time>2023-04-04T12:32:39.910Z</time>
      </trkpt>
      <trkpt lat="43.82288" lon="2.95817">
        <ele>546.44</ele>
        <time>2023-04-04T12:32:50.409Z</time>
      </trkpt>
      <trkpt lat="43.82294" lon="2.95831">
        <ele>543.45</ele>
        <time>2023-04-04T12:33:00.910Z</time>
      </trkpt>
      <trkpt lat="43.82302" lon="2.9584">
        <ele>541.45</ele>
        <time>2023-04-04T12:33:10.920Z</time>
      </trkpt>
      <trkpt lat="43.82311" lon="2.95852">
        <ele>541.44</ele>
        <time>2023-04-04T12:33:21.350Z</time>
      </trkpt>
      <trkpt lat="43.82317" lon="2.95863">
        <ele>539.44</ele>
        <time>2023-04-04T12:33:31.379Z</time>
      </trkpt>
      <trkpt lat="43.82323" lon="2.95875">
        <ele>536.51</ele>
        <time>2023-04-04T12:33:41.860Z</time>
      </trkpt>
      <trkpt lat="43.82326" lon="2.95883">
        <ele>536.5</ele>
        <time>2023-04-04T12:33:52.230Z</time>
      </trkpt>
      <trkpt lat="43.82326" lon="2.95885">
        <ele>536.44</ele>
        <time>2023-04-04T12:34:04.430Z</time>
      </trkpt>
      <trkpt lat="43.8233" lon="2.95896">
        <ele>535.43</ele>
        <time>2023-04-04T12:34:14.893Z</time>
      </trkpt>
      <trkpt lat="43.82337" lon="2.95904">
        <ele>535.44</ele>
        <time>2023-04-04T12:34:25.341Z</time>
      </trkpt>
      <trkpt lat="43.82337" lon="2.95891">
        <ele>537.44</ele>
        <time>2023-04-04T12:34:35.830Z</time>
      </trkpt>
      <trkpt lat="43.82336" lon="2.95878">
        <ele>539.43</ele>
        <time>2023-04-04T12:34:46.310Z</time>
      </trkpt>
      <trkpt lat="43.82336" lon="2.95867">
        <ele>539.43</ele>
        <time>2023-04-04T12:34:56.800Z</time>
      </trkpt>
      <trkpt lat="43.82331" lon="2.95849">
        <ele>538.44</ele>
        <time>2023-04-04T12:35:07.259Z</time>
      </trkpt>
      <trkpt lat="43.82324" lon="2.95833">
        <ele>535.45</ele>
        <time>2023-04-04T12:35:17.675Z</time>
      </trkpt>
      <trkpt lat="43.8232" lon="2.95822">
        <ele>536.44</ele>
        <time>2023-04-04T12:35:28.080Z</time>
      </trkpt>
      <trkpt lat="43.82318" lon="2.95807">
        <ele>536.38</ele>
        <time>2023-04-04T12:35:38.630Z</time>
      </trkpt>
      <trkpt lat="43.82316" lon="2.95793">
        <ele>535.44</ele>
        <time>2023-04-04T12:35:49.060Z</time>
      </trkpt>
      <trkpt lat="43.82312" lon="2.9578">
        <ele>536.44</ele>
        <time>2023-04-04T12:35:59.454Z</time>
      </trkpt>
      <trkpt lat="43.82304" lon="2.95765">
        <ele>536.44</ele>
        <time>2023-04-04T12:36:09.510Z</time>
      </trkpt>
      <trkpt lat="43.82295" lon="2.95749">
        <ele>535.43</ele>
        <time>2023-04-04T12:36:20.051Z</time>
      </trkpt>
      <trkpt lat="43.82287" lon="2.95737">
        <ele>537.43</ele>
        <time>2023-04-04T12:36:30.433Z</time>
      </trkpt>
      <trkpt lat="43.82283" lon="2.95728">
        <ele>541.45</ele>
        <time>2023-04-04T12:36:40.681Z</time>
      </trkpt>
      <trkpt lat="43.82278" lon="2.95718">
        <ele>541.44</ele>
        <time>2023-04-04T12:36:50.689Z</time>
      </trkpt>
      <trkpt lat="43.82281" lon="2.95702">
        <ele>544.45</ele>
        <time>2023-04-04T12:37:01.170Z</time>
      </trkpt>
      <trkpt lat="43.82289" lon="2.95684">
        <ele>539.45</ele>
        <time>2023-04-04T12:37:11.220Z</time>
      </trkpt>
      <trkpt lat="43.82296" lon="2.95678">
        <ele>534.46</ele>
        <time>2023-04-04T12:37:21.709Z</time>
      </trkpt>
      <trkpt lat="43.82305" lon="2.95667">
        <ele>532.45</ele>
        <time>2023-04-04T12:37:32.119Z</time>
      </trkpt>
      <trkpt lat="43.82317" lon="2.95658">
        <ele>533.38</ele>
        <time>2023-04-04T12:37:42.639Z</time>
      </trkpt>
      <trkpt lat="43.82328" lon="2.95661">
        <ele>533.44</ele>
        <time>2023-04-04T12:37:53.591Z</time>
      </trkpt>
      <trkpt lat="43.8234" lon="2.95655">
        <ele>533.44</ele>
        <time>2023-04-04T12:38:04.594Z</time>
      </trkpt>
      <trkpt lat="43.82357" lon="2.95648">
        <ele>533.39</ele>
        <time>2023-04-04T12:38:15.080Z</time>
      </trkpt>
      <trkpt lat="43.8236" lon="2.95637">
        <ele>532.44</ele>
        <time>2023-04-04T12:38:25.640Z</time>
      </trkpt>
      <trkpt lat="43.82361" lon="2.95625">
        <ele>533.38</ele>
        <time>2023-04-04T12:38:36.099Z</time>
      </trkpt>
      <trkpt lat="43.8236" lon="2.95606">
        <ele>531.44</ele>
        <time>2023-04-04T12:38:46.130Z</time>
      </trkpt>
      <trkpt lat="43.82354" lon="2.95589">
        <ele>527.46</ele>
        <time>2023-04-04T12:38:56.530Z</time>
      </trkpt>
      <trkpt lat="43.82347" lon="2.95575">
        <ele>522.51</ele>
        <time>2023-04-04T12:39:07.060Z</time>
      </trkpt>
      <trkpt lat="43.82341" lon="2.95561">
        <ele>519.57</ele>
        <time>2023-04-04T12:39:17.090Z</time>
      </trkpt>
      <trkpt lat="43.82332" lon="2.9555">
        <ele>518.45</ele>
        <time>2023-04-04T12:39:27.589Z</time>
      </trkpt>
      <trkpt lat="43.82321" lon="2.95541">
        <ele>518.7</ele>
        <time>2023-04-04T12:39:38.140Z</time>
      </trkpt>
      <trkpt lat="43.82311" lon="2.95528">
        <ele>514.51</ele>
        <time>2023-04-04T12:39:48.579Z</time>
      </trkpt>
      <trkpt lat="43.82304" lon="2.95514">
        <ele>514.45</ele>
        <time>2023-04-04T12:39:59.013Z</time>
      </trkpt>
      <trkpt lat="43.82292" lon="2.95503">
        <ele>513.51</ele>
        <time>2023-04-04T12:40:09.469Z</time>
      </trkpt>
      <trkpt lat="43.82289" lon="2.95496">
        <ele>507.46</ele>
        <time>2023-04-04T12:40:19.959Z</time>
      </trkpt>
      <trkpt lat="43.82296" lon="2.95495">
        <ele>505.45</ele>
        <time>2023-04-04T12:40:30.420Z</time>
      </trkpt>
      <trkpt lat="43.82302" lon="2.95501">
        <ele>506.43</ele>
        <time>2023-04-04T12:40:40.899Z</time>
      </trkpt>
      <trkpt lat="43.82311" lon="2.95503">
        <ele>504.45</ele>
        <time>2023-04-04T12:40:51.261Z</time>
      </trkpt>
      <trkpt lat="43.82325" lon="2.9551">
        <ele>505.45</ele>
        <time>2023-04-04T12:41:01.669Z</time>
      </trkpt>
      <trkpt lat="43.82339" lon="2.95518">
        <ele>506.45</ele>
        <time>2023-04-04T12:41:12.070Z</time>
      </trkpt>
      <trkpt lat="43.82349" lon="2.95522">
        <ele>506.45</ele>
        <time>2023-04-04T12:41:22.560Z</time>
      </trkpt>
      <trkpt lat="43.82359" lon="2.95529">
        <ele>501.7</ele>
        <time>2023-04-04T12:41:32.980Z</time>
      </trkpt>
      <trkpt lat="43.8237" lon="2.95535">
        <ele>499.46</ele>
        <time>2023-04-04T12:41:43.273Z</time>
      </trkpt>
      <trkpt lat="43.82378" lon="2.9554">
        <ele>498.94</ele>
        <time>2023-04-04T12:41:53.709Z</time>
      </trkpt>
      <trkpt lat="43.82384" lon="2.95548">
        <ele>499.44</ele>
        <time>2023-04-04T12:42:04.200Z</time>
      </trkpt>
      <trkpt lat="43.8239" lon="2.95555">
        <ele>496.69</ele>
        <time>2023-04-04T12:42:14.639Z</time>
      </trkpt>
      <trkpt lat="43.82396" lon="2.95561">
        <ele>495.4</ele>
        <time>2023-04-04T12:42:25.150Z</time>
      </trkpt>
      <trkpt lat="43.82404" lon="2.95568">
        <ele>495.44</ele>
        <time>2023-04-04T12:42:35.672Z</time>
      </trkpt>
      <trkpt lat="43.82412" lon="2.95574">
        <ele>496.21</ele>
        <time>2023-04-04T12:42:46.034Z</time>
      </trkpt>
      <trkpt lat="43.8242" lon="2.95586">
        <ele>493.44</ele>
        <time>2023-04-04T12:42:56.080Z</time>
      </trkpt>
      <trkpt lat="43.82426" lon="2.95597">
        <ele>492.44</ele>
        <time>2023-04-04T12:43:06.342Z</time>
      </trkpt>
      <trkpt lat="43.82431" lon="2.95609">
        <ele>491.44</ele>
        <time>2023-04-04T12:43:16.673Z</time>
      </trkpt>
      <trkpt lat="43.82433" lon="2.95624">
        <ele>490.45</ele>
        <time>2023-04-04T12:43:26.760Z</time>
      </trkpt>
      <trkpt lat="43.82435" lon="2.95642">
        <ele>490.44</ele>
        <time>2023-04-04T12:43:37.110Z</time>
      </trkpt>
      <trkpt lat="43.82433" lon="2.9566">
        <ele>488.44</ele>
        <time>2023-04-04T12:43:47.670Z</time>
      </trkpt>
      <trkpt lat="43.82433" lon="2.95676">
        <ele>487.5</ele>
        <time>2023-04-04T12:43:57.691Z</time>
      </trkpt>
      <trkpt lat="43.82426" lon="2.95698">
        <ele>480.08</ele>
        <time>2023-04-04T12:44:08.675Z</time>
      </trkpt>
      <trkpt lat="43.82423" lon="2.95713">
        <ele>475.77</ele>
        <time>2023-04-04T12:44:18.678Z</time>
      </trkpt>
      <trkpt lat="43.82416" lon="2.95728">
        <ele>471.54</ele>
        <time>2023-04-04T12:44:28.680Z</time>
      </trkpt>
      <trkpt lat="43.8241" lon="2.95746">
        <ele>466.51</ele>
        <time>2023-04-04T12:44:38.682Z</time>
      </trkpt>
      <trkpt lat="43.82411" lon="2.95755">
        <ele>461.44</ele>
        <time>2023-04-04T12:44:48.840Z</time>
      </trkpt>
      <trkpt lat="43.82419" lon="2.95757">
        <ele>459.45</ele>
        <time>2023-04-04T12:44:59.140Z</time>
      </trkpt>
      <trkpt lat="43.82426" lon="2.95762">
        <ele>461.43</ele>
        <time>2023-04-04T12:45:09.519Z</time>
      </trkpt>
      <trkpt lat="43.82434" lon="2.9576">
        <ele>462.44</ele>
        <time>2023-04-04T12:45:19.938Z</time>
      </trkpt>
      <trkpt lat="43.82436" lon="2.95752">
        <ele>462.69</ele>
        <time>2023-04-04T12:45:30.019Z</time>
      </trkpt>
      <trkpt lat="43.82438" lon="2.95744">
        <ele>466.44</ele>
        <time>2023-04-04T12:45:40.480Z</time>
      </trkpt>
      <trkpt lat="43.82444" lon="2.95731">
        <ele>465.69</ele>
        <time>2023-04-04T12:45:50.960Z</time>
      </trkpt>
      <trkpt lat="43.82451" lon="2.95717">
        <ele>464.44</ele>
        <time>2023-04-04T12:46:01.329Z</time>
      </trkpt>
      <trkpt lat="43.82458" lon="2.95705">
        <ele>469.42</ele>
        <time>2023-04-04T12:46:11.688Z</time>
      </trkpt>
      <trkpt lat="43.82468" lon="2.95689">
        <ele>475.42</ele>
        <time>2023-04-04T12:46:22.200Z</time>
      </trkpt>
      <trkpt lat="43.82474" lon="2.95675">
        <ele>481.45</ele>
        <time>2023-04-04T12:46:32.702Z</time>
      </trkpt>
      <trkpt lat="43.82481" lon="2.9566">
        <ele>480.44</ele>
        <time>2023-04-04T12:46:43.140Z</time>
      </trkpt>
      <trkpt lat="43.82487" lon="2.95649">
        <ele>483.37</ele>
        <time>2023-04-04T12:46:53.569Z</time>
      </trkpt>
      <trkpt lat="43.82493" lon="2.95637">
        <ele>482.45</ele>
        <time>2023-04-04T12:47:03.629Z</time>
      </trkpt>
      <trkpt lat="43.82498" lon="2.95628">
        <ele>478.45</ele>
        <time>2023-04-04T12:47:13.640Z</time>
      </trkpt>
      <trkpt lat="43.82506" lon="2.95615">
        <ele>470.83</ele>
        <time>2023-04-04T12:47:24.694Z</time>
      </trkpt>
      <trkpt lat="43.82506" lon="2.95609">
        <ele>465.44</ele>
        <time>2023-04-04T12:47:35.160Z</time>
      </trkpt>
      <trkpt lat="43.82513" lon="2.9561">
        <ele>457.5</ele>
        <time>2023-04-04T12:47:45.613Z</time>
      </trkpt>
      <trkpt lat="43.82523" lon="2.95618">
        <ele>455.44</ele>
        <time>2023-04-04T12:47:56.049Z</time>
      </trkpt>
      <trkpt lat="43.82534" lon="2.95625">
        <ele>453.69</ele>
        <time>2023-04-04T12:48:06.490Z</time>
      </trkpt>
      <trkpt lat="43.82546" lon="2.95633">
        <ele>454.42</ele>
        <time>2023-04-04T12:48:16.959Z</time>
      </trkpt>
      <trkpt lat="43.82557" lon="2.95635">
        <ele>454.44</ele>
        <time>2023-04-04T12:48:27.410Z</time>
      </trkpt>
      <trkpt lat="43.82569" lon="2.95635">
        <ele>453.44</ele>
        <time>2023-04-04T12:48:37.900Z</time>
      </trkpt>
      <trkpt lat="43.82579" lon="2.95639">
        <ele>452.19</ele>
        <time>2023-04-04T12:48:48.390Z</time>
      </trkpt>
      <trkpt lat="43.82586" lon="2.95644">
        <ele>450.42</ele>
        <time>2023-04-04T12:48:58.859Z</time>
      </trkpt>
      <trkpt lat="43.82595" lon="2.95648">
        <ele>444.77</ele>
        <time>2023-04-04T12:49:08.864Z</time>
      </trkpt>
      <trkpt lat="43.82606" lon="2.95651">
        <ele>448.37</ele>
        <time>2023-04-04T12:49:19.210Z</time>
      </trkpt>
      <trkpt lat="43.82619" lon="2.95652">
        <ele>454.37</ele>
        <time>2023-04-04T12:49:29.701Z</time>
      </trkpt>
      <trkpt lat="43.82631" lon="2.95658">
        <ele>456.44</ele>
        <time>2023-04-04T12:49:40.139Z</time>
      </trkpt>
      <trkpt lat="43.82642" lon="2.95661">
        <ele>457.44</ele>
        <time>2023-04-04T12:49:50.600Z</time>
      </trkpt>
      <trkpt lat="43.82652" lon="2.95658">
        <ele>460.44</ele>
        <time>2023-04-04T12:50:01.039Z</time>
      </trkpt>
      <trkpt lat="43.82664" lon="2.95655">
        <ele>459.44</ele>
        <time>2023-04-04T12:50:11.469Z</time>
      </trkpt>
      <trkpt lat="43.82676" lon="2.95649">
        <ele>457.68</ele>
        <time>2023-04-04T12:50:21.799Z</time>
      </trkpt>
      <trkpt lat="43.82689" lon="2.95647">
        <ele>459.38</ele>
        <time>2023-04-04T12:50:32.199Z</time>
      </trkpt>
      <trkpt lat="43.82698" lon="2.95654">
        <ele>456.19</ele>
        <time>2023-04-04T12:50:42.658Z</time>
      </trkpt>
      <trkpt lat="43.82709" lon="2.95658">
        <ele>457.44</ele>
        <time>2023-04-04T12:50:53.000Z</time>
      </trkpt>
      <trkpt lat="43.82719" lon="2.95658">
        <ele>461.42</ele>
        <time>2023-04-04T12:51:03.530Z</time>
      </trkpt>
      <trkpt lat="43.8273" lon="2.95662">
        <ele>460.44</ele>
        <time>2023-04-04T12:51:14.080Z</time>
      </trkpt>
      <trkpt lat="43.82742" lon="2.95669">
        <ele>456.69</ele>
        <time>2023-04-04T12:51:24.520Z</time>
      </trkpt>
      <trkpt lat="43.8275" lon="2.95676">
        <ele>453.44</ele>
        <time>2023-04-04T12:51:34.930Z</time>
      </trkpt>
      <trkpt lat="43.82755" lon="2.9568">
        <ele>454.44</ele>
        <time>2023-04-04T12:51:45.360Z</time>
      </trkpt>
      <trkpt lat="43.8276" lon="2.95678">
        <ele>454.67</ele>
        <time>2023-04-04T12:51:55.859Z</time>
      </trkpt>
      <trkpt lat="43.82763" lon="2.95676">
        <ele>455.12</ele>
        <time>2023-04-04T12:52:06.260Z</time>
      </trkpt>
      <trkpt lat="43.82766" lon="2.95675">
        <ele>452.7</ele>
        <time>2023-04-04T12:52:16.539Z</time>
      </trkpt>
      <trkpt lat="43.82767" lon="2.95674">
        <ele>445.5</ele>
        <time>2023-04-04T12:52:26.595Z</time>
      </trkpt>
      <trkpt lat="43.82767" lon="2.9567">
        <ele>445.44</ele>
        <time>2023-04-04T12:52:37.600Z</time>
      </trkpt>
      <trkpt lat="43.82768" lon="2.95671">
        <ele>446.44</ele>
        <time>2023-04-04T12:52:48.687Z</time>
      </trkpt>
      <trkpt lat="43.82767" lon="2.95671">
        <ele>446.44</ele>
        <time>2023-04-04T12:52:58.689Z</time>
      </trkpt>
      <trkpt lat="43.82768" lon="2.95672">
        <ele>446.48</ele>
        <time>2023-04-04T12:53:29.696Z</time>
      </trkpt>
      <trkpt lat="43.8277" lon="2.95676">
        <ele>444.44</ele>
        <time>2023-04-04T12:53:39.697Z</time>
      </trkpt>
      <trkpt lat="43.82771" lon="2.95674">
        <ele>444.39</ele>
        <time>2023-04-04T12:54:02.686Z</time>
      </trkpt>
      <trkpt lat="43.82771" lon="2.95676">
        <ele>442.68</ele>
        <time>2023-04-04T12:54:45.689Z</time>
      </trkpt>
      <trkpt lat="43.82771" lon="2.95677">
        <ele>442.43</ele>
        <time>2023-04-04T12:55:25.693Z</time>
      </trkpt>
      <trkpt lat="43.82773" lon="2.95675">
        <ele>442.44</ele>
        <time>2023-04-04T12:55:35.695Z</time>
      </trkpt>
      <trkpt lat="43.82767" lon="2.95673">
        <ele>445.44</ele>
        <time>2023-04-04T12:55:46.688Z</time>
      </trkpt>
      <trkpt lat="43.82762" lon="2.95675">
        <ele>445.69</ele>
        <time>2023-04-04T12:55:56.688Z</time>
      </trkpt>
      <trkpt lat="43.8276" lon="2.95682">
        <ele>448.17</ele>
        <time>2023-04-04T12:56:07.696Z</time>
      </trkpt>
      <trkpt lat="43.82766" lon="2.95686">
        <ele>451.42</ele>
        <time>2023-04-04T12:56:18.698Z</time>
      </trkpt>
      <trkpt lat="43.82778" lon="2.95686">
        <ele>455.43</ele>
        <time>2023-04-04T12:56:29.686Z</time>
      </trkpt>
      <trkpt lat="43.82783" lon="2.95684">
        <ele>460.43</ele>
        <time>2023-04-04T12:56:39.999Z</time>
      </trkpt>
      <trkpt lat="43.82793" lon="2.95681">
        <ele>460.5</ele>
        <time>2023-04-04T12:56:50.479Z</time>
      </trkpt>
      <trkpt lat="43.82805" lon="2.9568">
        <ele>459.43</ele>
        <time>2023-04-04T12:57:00.949Z</time>
      </trkpt>
      <trkpt lat="43.82818" lon="2.95676">
        <ele>461.43</ele>
        <time>2023-04-04T12:57:11.410Z</time>
      </trkpt>
      <trkpt lat="43.82825" lon="2.95673">
        <ele>461.2</ele>
        <time>2023-04-04T12:57:21.739Z</time>
      </trkpt>
      <trkpt lat="43.82838" lon="2.95671">
        <ele>461.43</ele>
        <time>2023-04-04T12:57:32.229Z</time>
      </trkpt>
      <trkpt lat="43.82849" lon="2.95671">
        <ele>458.68</ele>
        <time>2023-04-04T12:57:42.640Z</time>
      </trkpt>
      <trkpt lat="43.82863" lon="2.95675">
        <ele>458.37</ele>
        <time>2023-04-04T12:57:53.485Z</time>
      </trkpt>
      <trkpt lat="43.82874" lon="2.95676">
        <ele>458.43</ele>
        <time>2023-04-04T12:58:03.885Z</time>
      </trkpt>
      <trkpt lat="43.8288" lon="2.95677">
        <ele>461.43</ele>
        <time>2023-04-04T12:58:14.249Z</time>
      </trkpt>
      <trkpt lat="43.82893" lon="2.95681">
        <ele>462.43</ele>
        <time>2023-04-04T12:58:24.640Z</time>
      </trkpt>
      <trkpt lat="43.82908" lon="2.95684">
        <ele>462.49</ele>
        <time>2023-04-04T12:58:35.009Z</time>
      </trkpt>
      <trkpt lat="43.8292" lon="2.95686">
        <ele>463.43</ele>
        <time>2023-04-04T12:58:45.409Z</time>
      </trkpt>
      <trkpt lat="43.82928" lon="2.95687">
        <ele>464.41</ele>
        <time>2023-04-04T12:58:55.900Z</time>
      </trkpt>
      <trkpt lat="43.8294" lon="2.95691">
        <ele>463.43</ele>
        <time>2023-04-04T12:59:06.179Z</time>
      </trkpt>
      <trkpt lat="43.82952" lon="2.95698">
        <ele>465.37</ele>
        <time>2023-04-04T12:59:16.549Z</time>
      </trkpt>
      <trkpt lat="43.82963" lon="2.95706">
        <ele>465.38</ele>
        <time>2023-04-04T12:59:27.465Z</time>
      </trkpt>
      <trkpt lat="43.82974" lon="2.95712">
        <ele>468.18</ele>
        <time>2023-04-04T12:59:37.910Z</time>
      </trkpt>
      <trkpt lat="43.82985" lon="2.95723">
        <ele>468.43</ele>
        <time>2023-04-04T12:59:48.319Z</time>
      </trkpt>
      <trkpt lat="43.82996" lon="2.95729">
        <ele>469.18</ele>
        <time>2023-04-04T12:59:58.709Z</time>
      </trkpt>
      <trkpt lat="43.83006" lon="2.95732">
        <ele>470.43</ele>
        <time>2023-04-04T13:00:09.270Z</time>
      </trkpt>
      <trkpt lat="43.83018" lon="2.95736">
        <ele>469.49</ele>
        <time>2023-04-04T13:00:19.550Z</time>
      </trkpt>
      <trkpt lat="43.83029" lon="2.95739">
        <ele>467.43</ele>
        <time>2023-04-04T13:00:29.999Z</time>
      </trkpt>
      <trkpt lat="43.8304" lon="2.95745">
        <ele>463.5</ele>
        <time>2023-04-04T13:00:40.290Z</time>
      </trkpt>
      <trkpt lat="43.83053" lon="2.95752">
        <ele>462.43</ele>
        <time>2023-04-04T13:00:50.740Z</time>
      </trkpt>
      <trkpt lat="43.83062" lon="2.95757">
        <ele>462.43</ele>
        <time>2023-04-04T13:01:01.200Z</time>
      </trkpt>
      <trkpt lat="43.83074" lon="2.95765">
        <ele>464.41</ele>
        <time>2023-04-04T13:01:11.714Z</time>
      </trkpt>
      <trkpt lat="43.83084" lon="2.95767">
        <ele>463.43</ele>
        <time>2023-04-04T13:01:22.220Z</time>
      </trkpt>
      <trkpt lat="43.83101" lon="2.9577">
        <ele>461.19</ele>
        <time>2023-04-04T13:01:32.709Z</time>
      </trkpt>
      <trkpt lat="43.83113" lon="2.95775">
        <ele>461.43</ele>
        <time>2023-04-04T13:01:43.139Z</time>
      </trkpt>
      <trkpt lat="43.83122" lon="2.95775">
        <ele>458.43</ele>
        <time>2023-04-04T13:01:53.580Z</time>
      </trkpt>
      <trkpt lat="43.83126" lon="2.95779">
        <ele>454.43</ele>
        <time>2023-04-04T13:02:04.020Z</time>
      </trkpt>
      <trkpt lat="43.83128" lon="2.95781">
        <ele>456.41</ele>
        <time>2023-04-04T13:02:14.430Z</time>
      </trkpt>
      <trkpt lat="43.83129" lon="2.9578">
        <ele>455.49</ele>
        <time>2023-04-04T13:02:25.480Z</time>
      </trkpt>
      <trkpt lat="43.83131" lon="2.95779">
        <ele>453.45</ele>
        <time>2023-04-04T13:02:36.366Z</time>
      </trkpt>
      <trkpt lat="43.83131" lon="2.95777">
        <ele>454.36</ele>
        <time>2023-04-04T13:02:48.350Z</time>
      </trkpt>
      <trkpt lat="43.83137" lon="2.95774">
        <ele>458.35</ele>
        <time>2023-04-04T13:02:58.840Z</time>
      </trkpt>
      <trkpt lat="43.83148" lon="2.95776">
        <ele>456.68</ele>
        <time>2023-04-04T13:03:09.264Z</time>
      </trkpt>
      <trkpt lat="43.83161" lon="2.95777">
        <ele>457.42</ele>
        <time>2023-04-04T13:03:19.779Z</time>
      </trkpt>
      <trkpt lat="43.8317" lon="2.95782">
        <ele>459.42</ele>
        <time>2023-04-04T13:03:30.199Z</time>
      </trkpt>
      <trkpt lat="43.83176" lon="2.95791">
        <ele>457.74</ele>
        <time>2023-04-04T13:03:40.240Z</time>
      </trkpt>
      <trkpt lat="43.83185" lon="2.95804">
        <ele>453.68</ele>
        <time>2023-04-04T13:03:50.600Z</time>
      </trkpt>
      <trkpt lat="43.83191" lon="2.95818">
        <ele>454.17</ele>
        <time>2023-04-04T13:04:01.029Z</time>
      </trkpt>
      <trkpt lat="43.83197" lon="2.95827">
        <ele>456.41</ele>
        <time>2023-04-04T13:04:11.429Z</time>
      </trkpt>
      <trkpt lat="43.83204" lon="2.95834">
        <ele>459.17</ele>
        <time>2023-04-04T13:04:21.860Z</time>
      </trkpt>
      <trkpt lat="43.83211" lon="2.95844">
        <ele>459.42</ele>
        <time>2023-04-04T13:04:32.330Z</time>
      </trkpt>
      <trkpt lat="43.83217" lon="2.95852">
        <ele>461.42</ele>
        <time>2023-04-04T13:04:42.780Z</time>
      </trkpt>
      <trkpt lat="43.83223" lon="2.95856">
        <ele>462.42</ele>
        <time>2023-04-04T13:04:53.360Z</time>
      </trkpt>
      <trkpt lat="43.83232" lon="2.95866">
        <ele>463.42</ele>
        <time>2023-04-04T13:05:03.780Z</time>
      </trkpt>
      <trkpt lat="43.83239" lon="2.95874">
        <ele>463.36</ele>
        <time>2023-04-04T13:05:14.260Z</time>
      </trkpt>
      <trkpt lat="43.83248" lon="2.95883">
        <ele>461.42</ele>
        <time>2023-04-04T13:05:24.709Z</time>
      </trkpt>
      <trkpt lat="43.83255" lon="2.95895">
        <ele>459.49</ele>
        <time>2023-04-04T13:05:35.129Z</time>
      </trkpt>
      <trkpt lat="43.83259" lon="2.95907">
        <ele>459.41</ele>
        <time>2023-04-04T13:05:45.680Z</time>
      </trkpt>
      <trkpt lat="43.83265" lon="2.95917">
        <ele>459.42</ele>
        <time>2023-04-04T13:05:56.179Z</time>
      </trkpt>
      <trkpt lat="43.83269" lon="2.95927">
        <ele>460.36</ele>
        <time>2023-04-04T13:06:06.190Z</time>
      </trkpt>
      <trkpt lat="43.83271" lon="2.95939">
        <ele>460.42</ele>
        <time>2023-04-04T13:06:16.640Z</time>
      </trkpt>
      <trkpt lat="43.83272" lon="2.95941">
        <ele>463.42</ele>
        <time>2023-04-04T13:06:27.123Z</time>
      </trkpt>
      <trkpt lat="43.83275" lon="2.95945">
        <ele>462.42</ele>
        <time>2023-04-04T13:06:37.179Z</time>
      </trkpt>
      <trkpt lat="43.83274" lon="2.95945">
        <ele>461.42</ele>
        <time>2023-04-04T13:06:56.425Z</time>
      </trkpt>
      <trkpt lat="43.83277" lon="2.95948">
        <ele>464.42</ele>
        <time>2023-04-04T13:07:06.460Z</time>
      </trkpt>
      <trkpt lat="43.83282" lon="2.95938">
        <ele>461.67</ele>
        <time>2023-04-04T13:07:16.960Z</time>
      </trkpt>
      <trkpt lat="43.83284" lon="2.9592">
        <ele>458.37</ele>
        <time>2023-04-04T13:07:27.200Z</time>
      </trkpt>
      <trkpt lat="43.8328" lon="2.95907">
        <ele>452.44</ele>
        <time>2023-04-04T13:07:37.629Z</time>
      </trkpt>
      <trkpt lat="43.83277" lon="2.95897">
        <ele>450.42</ele>
        <time>2023-04-04T13:07:48.069Z</time>
      </trkpt>
      <trkpt lat="43.83277" lon="2.95887">
        <ele>449.49</ele>
        <time>2023-04-04T13:07:58.490Z</time>
      </trkpt>
      <trkpt lat="43.83279" lon="2.95876">
        <ele>451.42</ele>
        <time>2023-04-04T13:08:08.990Z</time>
      </trkpt>
      <trkpt lat="43.83279" lon="2.9587">
        <ele>452.42</ele>
        <time>2023-04-04T13:08:19.400Z</time>
      </trkpt>
      <trkpt lat="43.8328" lon="2.95866">
        <ele>450.42</ele>
        <time>2023-04-04T13:08:30.420Z</time>
      </trkpt>
      <trkpt lat="43.83281" lon="2.95863">
        <ele>448.43</ele>
        <time>2023-04-04T13:08:40.964Z</time>
      </trkpt>
      <trkpt lat="43.83282" lon="2.95857">
        <ele>448.42</ele>
        <time>2023-04-04T13:08:51.390Z</time>
      </trkpt>
      <trkpt lat="43.83283" lon="2.95853">
        <ele>449.42</ele>
        <time>2023-04-04T13:09:01.800Z</time>
      </trkpt>
      <trkpt lat="43.83281" lon="2.9585">
        <ele>450.37</ele>
        <time>2023-04-04T13:09:12.320Z</time>
      </trkpt>
      <trkpt lat="43.83277" lon="2.95842">
        <ele>451.42</ele>
        <time>2023-04-04T13:09:23.320Z</time>
      </trkpt>
      <trkpt lat="43.8328" lon="2.95833">
        <ele>451.43</ele>
        <time>2023-04-04T13:09:33.684Z</time>
      </trkpt>
      <trkpt lat="43.83289" lon="2.95831">
        <ele>452.42</ele>
        <time>2023-04-04T13:09:44.081Z</time>
      </trkpt>
      <trkpt lat="43.833" lon="2.95832">
        <ele>453.17</ele>
        <time>2023-04-04T13:09:54.685Z</time>
      </trkpt>
      <trkpt lat="43.83308" lon="2.95831">
        <ele>453.42</ele>
        <time>2023-04-04T13:10:04.695Z</time>
      </trkpt>
      <trkpt lat="43.83307" lon="2.95829">
        <ele>453.42</ele>
        <time>2023-04-04T13:10:15.686Z</time>
      </trkpt>
      <trkpt lat="43.83318" lon="2.95832">
        <ele>455.42</ele>
        <time>2023-04-04T13:10:25.693Z</time>
      </trkpt>
      <trkpt lat="43.83328" lon="2.95834">
        <ele>453.43</ele>
        <time>2023-04-04T13:10:35.697Z</time>
      </trkpt>
      <trkpt lat="43.8334" lon="2.95835">
        <ele>454.42</ele>
        <time>2023-04-04T13:10:46.690Z</time>
      </trkpt>
      <trkpt lat="43.83348" lon="2.95838">
        <ele>454.41</ele>
        <time>2023-04-04T13:10:56.697Z</time>
      </trkpt>
      <trkpt lat="43.8335" lon="2.95839">
        <ele>456.34</ele>
        <time>2023-04-04T13:11:12.697Z</time>
      </trkpt>
      <trkpt lat="43.83355" lon="2.95854">
        <ele>456.42</ele>
        <time>2023-04-04T13:11:22.697Z</time>
      </trkpt>
      <trkpt lat="43.83361" lon="2.9587">
        <ele>456.67</ele>
        <time>2023-04-04T13:11:32.702Z</time>
      </trkpt>
      <trkpt lat="43.83369" lon="2.95882">
        <ele>457.42</ele>
        <time>2023-04-04T13:11:43.673Z</time>
      </trkpt>
      <trkpt lat="43.83377" lon="2.95892">
        <ele>458.42</ele>
        <time>2023-04-04T13:11:53.695Z</time>
      </trkpt>
      <trkpt lat="43.83384" lon="2.95903">
        <ele>458.42</ele>
        <time>2023-04-04T13:12:04.695Z</time>
      </trkpt>
      <trkpt lat="43.83386" lon="2.95907">
        <ele>459.42</ele>
        <time>2023-04-04T13:12:15.696Z</time>
      </trkpt>
      <trkpt lat="43.83387" lon="2.95909">
        <ele>457.42</ele>
        <time>2023-04-04T13:12:25.696Z</time>
      </trkpt>
      <trkpt lat="43.83388" lon="2.95911">
        <ele>457.42</ele>
        <time>2023-04-04T13:12:55.698Z</time>
      </trkpt>
      <trkpt lat="43.83391" lon="2.9592">
        <ele>458.17</ele>
        <time>2023-04-04T13:13:06.684Z</time>
      </trkpt>
      <trkpt lat="43.83391" lon="2.95918">
        <ele>457.42</ele>
        <time>2023-04-04T13:13:16.697Z</time>
      </trkpt>
    </trkseg>
  </trk>
</gpx>